Time,TemperatureF,DewpointF,PressureIn,WindDirection,WindDirectionDegrees,WindSpeedMPH,WindSpeedGustMPH,Humidity,HourlyPrecipIn,Conditions,Clouds,dailyrainin,SoftwareType,DateUTC
2013-04-08 00:00:00,64.2,62.4,30.07,ESE,103,0.0,0.0,94,0.00,,,0.24,Wunderground v.1.15,2013-04-08 04:00:00,
2013-04-08 00:03:00,64.2,62.4,30.07,ESE,103,0.0,0.0,94,0.00,,,0.24,Wunderground v.1.15,2013-04-08 04:03:00,
2013-04-08 00:06:00,64.1,62.3,30.06,ESE,103,0.0,0.0,94,0.00,,,0.24,Wunderground v.1.15,2013-04-08 04:06:00,
2013-04-08 00:07:00,64.1,62.3,30.06,ESE,103,0.0,0.0,94,0.00,,,0.24,Wunderground v.1.15,2013-04-08 04:07:00,
2013-04-08 00:12:00,64.1,62.3,30.06,ESE,103,0.0,0.0,94,0.00,,,0.24,Wunderground v.1.15,2013-04-08 04:12:00,
2013-04-08 00:13:00,64.0,62.2,30.06,ESE,103,0.0,0.0,94,0.00,,,0.24,Wunderground v.1.15,2013-04-08 04:13:00,
2013-04-08 00:17:00,64.1,62.3,30.06,ESE,103,0.0,0.0,94,0.00,,,0.24,Wunderground v.1.15,2013-04-08 04:17:00,
2013-04-08 00:18:00,64.2,62.4,30.06,ESE,103,0.0,0.0,94,0.00,,,0.24,Wunderground v.1.15,2013-04-08 04:18:00,
2013-04-08 00:19:00,64.3,62.5,30.06,ESE,103,0.0,0.0,94,0.00,,,0.24,Wunderground v.1.15,2013-04-08 04:19:00,
2013-04-08 00:21:00,64.5,62.7,30.06,ESE,103,0.0,0.0,94,0.00,,,0.24,Wunderground v.1.15,2013-04-08 04:21:00,
2013-04-08 00:22:00,64.5,62.7,30.06,ESE,103,0.0,0.0,94,0.00,,,0.24,Wunderground v.1.15,2013-04-08 04:22:00,
2013-04-08 00:24:00,64.7,62.9,30.06,ESE,103,0.0,0.0,94,0.00,,,0.24,Wunderground v.1.15,2013-04-08 04:24:00,
2013-04-08 00:26:00,65.0,63.2,30.06,ESE,103,0.0,0.0,94,0.00,,,0.24,Wunderground v.1.15,2013-04-08 04:26:00,
2013-04-08 00:28:00,65.2,63.4,30.06,ESE,103,0.0,0.0,94,0.00,,,0.24,Wunderground v.1.15,2013-04-08 04:28:00,
2013-04-08 00:30:00,65.0,62.9,30.06,ESE,103,0.0,0.0,93,0.00,,,0.24,Wunderground v.1.15,2013-04-08 04:30:00,
2013-04-08 00:32:00,65.0,62.9,30.06,ESE,103,0.0,0.0,93,0.00,,,0.24,Wunderground v.1.15,2013-04-08 04:32:00,
2013-04-08 00:35:00,64.9,62.8,30.06,ESE,103,0.0,0.0,93,0.00,,,0.24,Wunderground v.1.15,2013-04-08 04:35:00,
2013-04-08 00:37:00,64.7,62.6,30.06,ESE,103,0.0,0.0,93,0.00,,,0.24,Wunderground v.1.15,2013-04-08 04:37:00,
2013-04-08 00:40:00,64.7,62.6,30.06,ESE,103,0.0,0.0,93,0.00,,,0.24,Wunderground v.1.15,2013-04-08 04:40:00,
2013-04-08 00:44:00,64.7,62.6,30.06,ESE,103,0.0,0.0,93,0.00,,,0.24,Wunderground v.1.15,2013-04-08 04:44:00,
2013-04-08 00:48:00,64.7,62.6,30.05,ESE,103,0.0,0.0,93,0.00,,,0.24,Wunderground v.1.15,2013-04-08 04:48:00,
2013-04-08 00:50:00,64.6,62.2,30.05,ESE,103,0.0,0.0,92,0.00,,,0.24,Wunderground v.1.15,2013-04-08 04:50:00,
2013-04-08 00:52:00,64.5,62.1,30.05,ESE,103,0.0,0.0,92,0.00,,,0.24,Wunderground v.1.15,2013-04-08 04:52:00,
2013-04-08 00:55:00,64.4,62.0,30.05,ESE,103,0.0,0.0,92,0.00,,,0.24,Wunderground v.1.15,2013-04-08 04:55:00,
2013-04-08 00:57:00,64.3,61.9,30.05,ESE,103,0.0,0.0,92,0.00,,,0.24,Wunderground v.1.15,2013-04-08 04:57:00,
2013-04-08 01:00:00,64.1,61.7,30.05,ESE,103,0.0,0.0,92,0.00,,,0.24,Wunderground v.1.15,2013-04-08 05:00:00,
2013-04-08 01:06:00,63.9,61.8,30.05,ESE,103,0.0,0.0,93,0.00,,,0.24,Wunderground v.1.15,2013-04-08 05:06:00,
2013-04-08 01:07:00,63.8,61.7,30.05,ESE,103,0.0,0.0,93,0.00,,,0.24,Wunderground v.1.15,2013-04-08 05:07:00,
2013-04-08 01:08:00,63.7,61.6,30.05,ESE,103,0.0,0.0,93,0.00,,,0.24,Wunderground v.1.15,2013-04-08 05:08:00,
2013-04-08 01:13:00,63.4,61.3,30.05,ESE,103,0.0,0.0,93,0.00,,,0.24,Wunderground v.1.15,2013-04-08 05:13:00,
2013-04-08 01:14:00,63.4,61.3,30.05,ESE,103,0.0,0.0,93,0.00,,,0.24,Wunderground v.1.15,2013-04-08 05:14:00,
2013-04-08 01:18:00,63.2,61.1,30.05,ESE,103,0.0,0.0,93,0.00,,,0.24,Wunderground v.1.15,2013-04-08 05:18:00,
2013-04-08 01:19:00,63.1,61.0,30.05,ESE,103,0.0,0.0,93,0.00,,,0.24,Wunderground v.1.15,2013-04-08 05:19:00,
2013-04-08 01:20:00,63.0,60.9,30.05,ESE,103,0.0,0.0,93,0.00,,,0.24,Wunderground v.1.15,2013-04-08 05:20:00,
2013-04-08 01:24:00,63.0,60.9,30.05,ESE,103,0.0,0.0,93,0.00,,,0.00,Wunderground v.1.15,2013-04-08 05:24:00,
2013-04-08 01:25:00,63.0,60.9,30.05,ESE,103,0.0,0.0,93,0.00,,,0.00,Wunderground v.1.15,2013-04-08 05:25:00,
2013-04-08 01:26:00,62.9,60.8,30.05,ESE,103,0.0,0.0,93,0.00,,,0.00,Wunderground v.1.15,2013-04-08 05:26:00,
2013-04-08 01:30:00,62.9,61.1,30.04,ESE,103,0.0,0.0,94,0.00,,,0.00,Wunderground v.1.15,2013-04-08 05:30:00,
2013-04-08 01:34:00,62.7,60.9,30.05,ESE,103,0.0,0.0,94,0.00,,,0.00,Wunderground v.1.15,2013-04-08 05:34:00,
2013-04-08 01:35:00,62.6,60.8,30.05,ESE,103,0.0,0.0,94,0.00,,,0.00,Wunderground v.1.15,2013-04-08 05:35:00,
2013-04-08 01:38:00,62.6,60.8,30.04,ESE,103,0.0,0.0,94,0.00,,,0.00,Wunderground v.1.15,2013-04-08 05:38:00,
2013-04-08 01:40:00,62.5,60.7,30.04,ESE,103,0.0,0.0,94,0.00,,,0.00,Wunderground v.1.15,2013-04-08 05:40:00,
2013-04-08 01:44:00,62.5,60.7,30.04,ESE,103,0.0,0.0,94,0.00,,,0.00,Wunderground v.1.15,2013-04-08 05:44:00,
2013-04-08 01:45:00,62.5,60.7,30.04,ESE,103,0.0,0.0,94,0.00,,,0.00,Wunderground v.1.15,2013-04-08 05:45:00,
2013-04-08 01:47:00,62.5,60.7,30.04,ESE,103,0.0,0.0,94,0.00,,,0.00,Wunderground v.1.15,2013-04-08 05:47:00,
2013-04-08 01:49:00,62.4,60.7,30.04,ESE,103,0.0,0.0,94,0.00,,,0.00,Wunderground v.1.15,2013-04-08 05:49:00,
2013-04-08 01:53:00,62.5,60.7,30.03,ESE,103,0.0,0.0,94,0.00,,,0.00,Wunderground v.1.15,2013-04-08 05:53:00,
2013-04-08 01:54:00,62.6,60.8,30.04,ESE,103,0.0,0.0,94,0.00,,,0.00,Wunderground v.1.15,2013-04-08 05:54:00,
2013-04-08 01:58:00,62.7,60.9,30.03,ESE,103,0.0,0.0,94,0.00,,,0.00,Wunderground v.1.15,2013-04-08 05:58:00,
2013-04-08 01:59:00,62.7,60.9,30.04,ESE,103,0.0,0.0,94,0.00,,,0.00,Wunderground v.1.15,2013-04-08 05:59:00,
2013-04-08 02:01:00,62.7,60.9,30.03,ESE,103,0.0,0.0,94,0.00,,,0.00,Wunderground v.1.15,2013-04-08 06:01:00,
2013-04-08 02:03:00,62.8,61.3,30.03,ESE,103,0.0,0.0,95,0.00,,,0.00,Wunderground v.1.15,2013-04-08 06:03:00,
2013-04-08 02:06:00,62.8,61.3,30.03,ESE,103,0.0,0.0,95,0.00,,,0.00,Wunderground v.1.15,2013-04-08 06:06:00,
2013-04-08 02:07:00,62.8,61.3,30.03,ESE,103,0.0,0.0,95,0.00,,,0.00,Wunderground v.1.15,2013-04-08 06:07:00,
2013-04-08 02:08:00,62.8,61.3,30.03,ESE,103,0.0,0.0,95,0.00,,,0.00,Wunderground v.1.15,2013-04-08 06:08:00,
2013-04-08 02:11:00,62.6,60.8,30.03,ESE,103,0.0,0.0,94,0.00,,,0.00,Wunderground v.1.15,2013-04-08 06:11:00,
2013-04-08 02:12:00,62.6,60.8,30.03,ESE,103,0.0,0.0,94,0.00,,,0.00,Wunderground v.1.15,2013-04-08 06:12:00,
2013-04-08 02:13:00,62.6,61.1,30.03,ESE,103,0.0,0.0,95,0.00,,,0.00,Wunderground v.1.15,2013-04-08 06:13:00,
2013-04-08 02:17:00,62.4,60.9,30.03,ESE,103,0.0,0.0,95,0.00,,,0.00,Wunderground v.1.15,2013-04-08 06:17:00,
2013-04-08 02:18:00,62.3,60.8,30.03,ESE,103,0.0,0.0,95,0.00,,,0.00,Wunderground v.1.15,2013-04-08 06:18:00,
2013-04-08 02:19:00,62.3,60.8,30.03,ESE,103,0.0,0.0,95,0.00,,,0.00,Wunderground v.1.15,2013-04-08 06:19:00,
2013-04-08 02:22:00,62.1,60.7,30.03,ESE,103,0.0,0.0,95,0.00,,,0.00,Wunderground v.1.15,2013-04-08 06:22:00,
2013-04-08 02:23:00,62.0,60.6,30.03,ESE,103,0.0,0.0,95,0.00,,,0.00,Wunderground v.1.15,2013-04-08 06:23:00,
2013-04-08 02:24:00,61.9,60.2,30.03,ESE,103,0.0,0.0,94,0.00,,,0.00,Wunderground v.1.15,2013-04-08 06:24:00,
2013-04-08 02:27:00,61.8,60.4,30.03,ESE,103,0.0,0.0,95,0.00,,,0.00,Wunderground v.1.15,2013-04-08 06:27:00,
2013-04-08 02:28:00,61.8,60.4,30.03,ESE,103,0.0,0.0,95,0.00,,,0.00,Wunderground v.1.15,2013-04-08 06:28:00,
2013-04-08 02:29:00,61.8,60.4,30.03,ESE,103,0.0,0.0,95,0.00,,,0.00,Wunderground v.1.15,2013-04-08 06:29:00,
2013-04-08 02:32:00,61.8,60.4,30.03,ESE,103,0.0,0.0,95,0.00,,,0.00,Wunderground v.1.15,2013-04-08 06:32:00,
2013-04-08 02:33:00,61.8,60.4,30.03,ESE,103,0.0,0.0,95,0.00,,,0.00,Wunderground v.1.15,2013-04-08 06:33:00,
2013-04-08 02:35:00,61.8,60.4,30.03,ESE,103,0.0,0.0,95,0.00,,,0.00,Wunderground v.1.15,2013-04-08 06:35:00,
2013-04-08 02:37:00,61.8,60.4,30.03,ESE,103,0.0,0.0,95,0.00,,,0.00,Wunderground v.1.15,2013-04-08 06:37:00,
2013-04-08 02:38:00,61.9,60.5,30.03,ESE,103,0.0,0.0,95,0.00,,,0.00,Wunderground v.1.15,2013-04-08 06:38:00,
2013-04-08 02:40:00,61.9,60.5,30.03,ESE,103,0.0,0.0,95,0.00,,,0.00,Wunderground v.1.15,2013-04-08 06:40:00,
2013-04-08 02:42:00,61.8,60.4,30.03,ESE,103,0.0,0.0,95,0.00,,,0.00,Wunderground v.1.15,2013-04-08 06:42:00,
2013-04-08 02:43:00,61.7,60.3,30.03,ESE,103,0.0,0.0,95,0.00,,,0.00,Wunderground v.1.15,2013-04-08 06:43:00,
2013-04-08 02:44:00,61.7,60.3,30.03,ESE,103,0.0,0.0,95,0.00,,,0.00,Wunderground v.1.15,2013-04-08 06:44:00,
2013-04-08 02:45:00,61.7,60.3,30.03,ESE,103,0.0,0.0,95,0.00,,,0.00,Wunderground v.1.15,2013-04-08 06:45:00,
2013-04-08 02:48:00,61.6,60.2,30.03,ESE,103,0.0,0.0,95,0.00,,,0.00,Wunderground v.1.15,2013-04-08 06:48:00,
2013-04-08 02:49:00,61.6,60.2,30.03,ESE,103,0.0,0.0,95,0.00,,,0.00,Wunderground v.1.15,2013-04-08 06:49:00,
2013-04-08 02:50:00,61.7,60.3,30.03,ESE,103,0.0,0.0,95,0.00,,,0.00,Wunderground v.1.15,2013-04-08 06:50:00,
2013-04-08 02:53:00,61.8,60.4,30.03,ESE,103,0.0,0.0,95,0.00,,,0.00,Wunderground v.1.15,2013-04-08 06:53:00,
2013-04-08 02:54:00,61.9,60.5,30.03,ESE,103,0.0,0.0,95,0.00,,,0.00,Wunderground v.1.15,2013-04-08 06:54:00,
2013-04-08 02:55:00,61.9,60.5,30.03,ESE,103,0.0,0.0,95,0.00,,,0.00,Wunderground v.1.15,2013-04-08 06:55:00,
2013-04-08 02:58:00,61.6,60.2,30.03,ESE,103,0.0,0.0,95,0.00,,,0.00,Wunderground v.1.15,2013-04-08 06:58:00,
2013-04-08 03:00:00,61.4,60.0,30.03,ESE,103,0.0,0.0,95,0.00,,,0.00,Wunderground v.1.15,2013-04-08 07:00:00,
2013-04-08 03:02:00,61.2,59.8,30.03,ESE,103,0.0,0.0,95,0.00,,,0.00,Wunderground v.1.15,2013-04-08 07:02:00,
2013-04-08 03:03:00,61.2,59.8,30.03,ESE,103,0.0,0.0,95,0.00,,,0.00,Wunderground v.1.15,2013-04-08 07:03:00,
2013-04-08 03:05:00,61.3,59.9,30.03,ESE,103,0.0,0.0,95,0.00,,,0.00,Wunderground v.1.15,2013-04-08 07:05:00,
2013-04-08 03:06:00,61.3,59.9,30.03,ESE,103,0.0,0.0,95,0.00,,,0.00,Wunderground v.1.15,2013-04-08 07:06:00,
2013-04-08 03:07:00,61.3,59.9,30.03,ESE,103,0.0,0.0,95,0.00,,,0.00,Wunderground v.1.15,2013-04-08 07:07:00,
2013-04-08 03:08:00,61.3,59.9,30.03,ESE,103,0.0,0.0,95,0.00,,,0.00,Wunderground v.1.15,2013-04-08 07:08:00,
2013-04-08 03:10:00,61.4,60.0,30.03,ESE,103,0.0,0.0,95,0.00,,,0.00,Wunderground v.1.15,2013-04-08 07:10:00,
2013-04-08 03:12:00,61.3,59.9,30.03,ESE,103,0.0,0.0,95,0.00,,,0.00,Wunderground v.1.15,2013-04-08 07:12:00,
2013-04-08 03:13:00,61.3,59.9,30.03,ESE,103,0.0,0.0,95,0.00,,,0.00,Wunderground v.1.15,2013-04-08 07:13:00,
2013-04-08 03:14:00,61.3,59.9,30.03,ESE,103,0.0,0.0,95,0.00,,,0.00,Wunderground v.1.15,2013-04-08 07:14:00,
2013-04-08 03:17:00,61.4,60.0,30.02,ESE,103,0.0,0.0,95,0.00,,,0.00,Wunderground v.1.15,2013-04-08 07:17:00,
2013-04-08 03:18:00,61.4,60.0,30.02,ESE,103,0.0,0.0,95,0.00,,,0.00,Wunderground v.1.15,2013-04-08 07:18:00,
2013-04-08 03:19:00,61.4,60.0,30.02,ESE,103,0.0,0.0,95,0.00,,,0.00,Wunderground v.1.15,2013-04-08 07:19:00,
2013-04-08 03:22:00,61.3,59.9,30.02,ESE,103,0.0,0.0,95,0.00,,,0.00,Wunderground v.1.15,2013-04-08 07:22:00,
2013-04-08 03:24:00,61.2,60.1,30.02,ESE,103,0.0,0.0,96,0.00,,,0.00,Wunderground v.1.15,2013-04-08 07:24:00,
2013-04-08 03:25:00,61.1,60.0,30.03,ESE,103,0.0,0.0,96,0.00,,,0.00,Wunderground v.1.15,2013-04-08 07:25:00,
2013-04-08 03:27:00,61.0,59.6,30.02,ESE,103,0.0,0.0,95,0.00,,,0.00,Wunderground v.1.15,2013-04-08 07:27:00,
2013-04-08 03:29:00,60.8,59.4,30.03,ESE,103,0.0,0.0,95,0.00,,,0.00,Wunderground v.1.15,2013-04-08 07:29:00,
2013-04-08 03:30:00,60.7,59.3,30.02,ESE,103,0.0,0.0,95,0.00,,,0.00,Wunderground v.1.15,2013-04-08 07:30:00,
2013-04-08 03:32:00,60.8,59.4,30.02,ESE,103,0.0,0.0,95,0.00,,,0.00,Wunderground v.1.15,2013-04-08 07:32:00,
2013-04-08 03:33:00,60.8,59.4,30.02,ESE,103,0.0,0.0,95,0.00,,,0.00,Wunderground v.1.15,2013-04-08 07:33:00,
2013-04-08 03:34:00,60.9,59.8,30.02,ESE,103,0.0,0.0,96,0.00,,,0.00,Wunderground v.1.15,2013-04-08 07:34:00,
2013-04-08 03:36:00,60.9,59.8,30.02,ESE,103,0.0,0.0,96,0.00,,,0.00,Wunderground v.1.15,2013-04-08 07:36:00,
2013-04-08 03:38:00,61.2,60.1,30.02,ESE,103,0.0,0.0,96,0.00,,,0.00,Wunderground v.1.15,2013-04-08 07:38:00,
2013-04-08 03:40:00,61.3,60.2,30.02,ESE,103,0.0,0.0,96,0.00,,,0.00,Wunderground v.1.15,2013-04-08 07:40:00,
2013-04-08 03:41:00,61.4,60.2,30.02,ESE,103,0.0,0.0,96,0.00,,,0.00,Wunderground v.1.15,2013-04-08 07:41:00,
2013-04-08 03:43:00,61.4,60.2,30.02,ESE,103,0.0,0.0,96,0.00,,,0.00,Wunderground v.1.15,2013-04-08 07:43:00,
2013-04-08 03:44:00,61.4,60.2,30.02,ESE,103,0.0,0.0,96,0.00,,,0.00,Wunderground v.1.15,2013-04-08 07:44:00,
2013-04-08 03:45:00,61.3,60.2,30.02,ESE,103,0.0,0.0,96,0.00,,,0.00,Wunderground v.1.15,2013-04-08 07:45:00,
2013-04-08 03:46:00,61.1,60.0,30.02,ESE,103,0.0,0.0,96,0.00,,,0.00,Wunderground v.1.15,2013-04-08 07:46:00,
2013-04-08 03:48:00,61.1,60.0,30.02,ESE,103,0.0,0.0,96,0.00,,,0.00,Wunderground v.1.15,2013-04-08 07:48:00,
2013-04-08 03:49:00,61.1,60.0,30.02,ESE,103,0.0,0.0,96,0.00,,,0.00,Wunderground v.1.15,2013-04-08 07:49:00,
2013-04-08 03:50:00,61.1,60.0,30.02,ESE,103,0.0,0.0,96,0.00,,,0.00,Wunderground v.1.15,2013-04-08 07:50:00,
2013-04-08 03:52:00,61.2,60.1,30.02,ESE,103,0.0,0.0,96,0.00,,,0.00,Wunderground v.1.15,2013-04-08 07:52:00,
2013-04-08 03:53:00,61.2,60.1,30.02,ESE,103,0.0,0.0,96,0.00,,,0.00,Wunderground v.1.15,2013-04-08 07:53:00,
2013-04-08 03:54:00,61.2,60.1,30.02,ESE,103,0.0,0.0,96,0.00,,,0.00,Wunderground v.1.15,2013-04-08 07:54:00,
2013-04-08 03:55:00,61.2,60.1,30.02,ESE,103,0.0,0.0,96,0.00,,,0.00,Wunderground v.1.15,2013-04-08 07:55:00,
2013-04-08 03:57:00,61.3,60.2,30.02,ESE,103,0.0,0.0,96,0.00,,,0.00,Wunderground v.1.15,2013-04-08 07:57:00,
2013-04-08 03:58:00,61.4,60.2,30.02,ESE,103,0.0,0.0,96,0.00,,,0.00,Wunderground v.1.15,2013-04-08 07:58:00,
2013-04-08 04:00:00,61.4,60.2,30.02,ESE,103,0.0,0.0,96,0.00,,,0.00,Wunderground v.1.15,2013-04-08 08:00:00,
2013-04-08 04:03:00,61.6,60.4,30.02,ESE,103,0.0,0.0,96,0.00,,,0.00,Wunderground v.1.15,2013-04-08 08:03:00,
2013-04-08 04:04:00,61.6,60.4,30.02,ESE,103,0.0,0.0,96,0.00,,,0.00,Wunderground v.1.15,2013-04-08 08:04:00,
2013-04-08 04:05:00,61.5,60.3,30.02,ESE,103,0.0,0.0,96,0.00,,,0.00,Wunderground v.1.15,2013-04-08 08:05:00,
2013-04-08 04:08:00,61.7,60.5,30.02,ESE,103,0.0,0.0,96,0.00,,,0.00,Wunderground v.1.15,2013-04-08 08:08:00,
2013-04-08 04:10:00,61.8,60.6,30.02,ESE,103,0.0,0.0,96,0.00,,,0.00,Wunderground v.1.15,2013-04-08 08:10:00,
2013-04-08 04:11:00,61.9,60.7,30.02,ESE,103,0.0,0.0,96,0.00,,,0.00,Wunderground v.1.15,2013-04-08 08:11:00,
2013-04-08 04:14:00,61.9,60.7,30.02,ESE,103,0.0,0.0,96,0.00,,,0.00,Wunderground v.1.15,2013-04-08 08:14:00,
2013-04-08 04:15:00,61.9,60.7,30.01,ESE,103,0.0,0.0,96,0.00,,,0.00,Wunderground v.1.15,2013-04-08 08:15:00,
2013-04-08 04:17:00,62.0,60.8,30.01,ESE,103,0.0,0.0,96,0.00,,,0.00,Wunderground v.1.15,2013-04-08 08:17:00,
2013-04-08 04:20:00,62.0,60.8,30.01,ESE,103,0.0,0.0,96,0.00,,,0.00,Wunderground v.1.15,2013-04-08 08:20:00,
2013-04-08 04:22:00,62.0,60.8,30.01,ESE,103,0.0,0.0,96,0.00,,,0.00,Wunderground v.1.15,2013-04-08 08:22:00,
2013-04-08 04:25:00,62.1,60.9,30.01,ESE,103,0.0,0.0,96,0.00,,,0.00,Wunderground v.1.15,2013-04-08 08:25:00,
2013-04-08 04:27:00,62.2,61.0,30.01,ESE,103,0.0,0.0,96,0.00,,,0.00,Wunderground v.1.15,2013-04-08 08:27:00,
2013-04-08 04:28:00,62.1,60.9,30.01,ESE,103,0.0,0.0,96,0.00,,,0.00,Wunderground v.1.15,2013-04-08 08:28:00,
2013-04-08 04:30:00,62.2,61.0,30.01,ESE,103,0.0,0.0,96,0.00,,,0.00,Wunderground v.1.15,2013-04-08 08:30:00,
2013-04-08 04:31:00,62.3,61.1,30.01,ESE,103,0.0,0.0,96,0.00,,,0.00,Wunderground v.1.15,2013-04-08 08:31:00,
2013-04-08 04:32:00,62.4,61.2,30.01,ESE,103,0.0,0.0,96,0.00,,,0.00,Wunderground v.1.15,2013-04-08 08:32:00,
2013-04-08 04:33:00,62.4,61.2,30.01,ESE,103,0.0,0.0,96,0.00,,,0.00,Wunderground v.1.15,2013-04-08 08:33:00,
2013-04-08 04:35:00,62.5,61.3,30.01,ESE,103,0.0,0.0,96,0.00,,,0.00,Wunderground v.1.15,2013-04-08 08:35:00,
2013-04-08 04:36:00,62.6,61.4,30.01,ESE,103,0.0,0.0,96,0.00,,,0.00,Wunderground v.1.15,2013-04-08 08:36:00,
2013-04-08 04:38:00,62.6,61.4,30.01,ESE,103,0.0,0.0,96,0.00,,,0.00,Wunderground v.1.15,2013-04-08 08:38:00,
2013-04-08 04:40:00,62.6,61.4,30.01,ESE,103,0.0,0.0,96,0.00,,,0.00,Wunderground v.1.15,2013-04-08 08:40:00,
2013-04-08 04:42:00,62.6,61.4,30.01,ESE,103,0.0,0.0,96,0.00,,,0.00,Wunderground v.1.15,2013-04-08 08:42:00,
2013-04-08 04:43:00,62.6,61.4,30.01,ESE,103,0.0,0.0,96,0.00,,,0.00,Wunderground v.1.15,2013-04-08 08:43:00,
2013-04-08 04:45:00,62.6,61.4,30.01,ESE,103,0.0,0.0,96,0.00,,,0.00,Wunderground v.1.15,2013-04-08 08:45:00,
2013-04-08 04:47:00,62.6,61.4,30.01,ESE,103,0.0,0.0,96,0.00,,,0.00,Wunderground v.1.15,2013-04-08 08:47:00,
2013-04-08 04:48:00,62.6,61.4,30.01,ESE,103,0.0,0.0,96,0.00,,,0.00,Wunderground v.1.15,2013-04-08 08:48:00,
2013-04-08 04:50:00,62.5,61.3,30.01,ESE,103,0.0,0.0,96,0.00,,,0.00,Wunderground v.1.15,2013-04-08 08:50:00,
2013-04-08 04:51:00,62.3,61.1,30.01,ESE,103,0.0,0.0,96,0.00,,,0.00,Wunderground v.1.15,2013-04-08 08:51:00,
2013-04-08 04:52:00,62.3,61.1,30.01,ESE,103,0.0,0.0,96,0.00,,,0.00,Wunderground v.1.15,2013-04-08 08:52:00,
2013-04-08 04:53:00,62.2,61.0,30.01,ESE,103,0.0,0.0,96,0.00,,,0.00,Wunderground v.1.15,2013-04-08 08:53:00,
2013-04-08 04:56:00,62.2,61.0,30.01,ESE,103,0.0,0.0,96,0.00,,,0.00,Wunderground v.1.15,2013-04-08 08:56:00,
2013-04-08 04:57:00,62.2,61.0,30.01,ESE,103,0.0,0.0,96,0.00,,,0.00,Wunderground v.1.15,2013-04-08 08:57:00,
2013-04-08 05:00:00,62.1,60.9,30.01,ESE,103,0.0,0.0,96,0.00,,,0.00,Wunderground v.1.15,2013-04-08 09:00:00,
2013-04-08 05:01:00,62.1,60.9,30.01,ESE,103,0.0,0.0,96,0.00,,,0.00,Wunderground v.1.15,2013-04-08 09:01:00,
2013-04-08 05:02:00,62.1,60.9,30.01,ESE,103,0.0,0.0,96,0.00,,,0.00,Wunderground v.1.15,2013-04-08 09:02:00,
2013-04-08 05:05:00,62.1,60.9,30.01,ESE,103,0.0,0.0,96,0.00,,,0.00,Wunderground v.1.15,2013-04-08 09:05:00,
2013-04-08 05:07:00,62.1,60.9,30.01,ESE,103,0.0,0.0,96,0.00,,,0.00,Wunderground v.1.15,2013-04-08 09:07:00,
2013-04-08 05:10:00,62.1,60.9,30.01,ESE,103,0.0,0.0,96,0.00,,,0.00,Wunderground v.1.15,2013-04-08 09:10:00,
2013-04-08 05:12:00,62.1,60.9,30.01,ESE,103,0.0,0.0,96,0.00,,,0.00,Wunderground v.1.15,2013-04-08 09:12:00,
2013-04-08 05:14:00,62.2,61.0,30.01,ESE,103,0.0,0.0,96,0.00,,,0.00,Wunderground v.1.15,2013-04-08 09:14:00,
2013-04-08 05:15:00,62.2,61.0,30.01,ESE,103,0.0,0.0,96,0.00,,,0.00,Wunderground v.1.15,2013-04-08 09:15:00,
2013-04-08 05:17:00,62.3,61.1,30.01,ESE,103,0.0,0.0,96,0.00,,,0.00,Wunderground v.1.15,2013-04-08 09:17:00,
2013-04-08 05:18:00,62.3,61.1,30.01,ESE,103,0.0,0.0,96,0.00,,,0.00,Wunderground v.1.15,2013-04-08 09:18:00,
2013-04-08 05:19:00,62.4,61.2,30.01,ESE,103,0.0,0.0,96,0.00,,,0.00,Wunderground v.1.15,2013-04-08 09:19:00,
2013-04-08 05:20:00,62.5,61.3,30.01,ESE,103,0.0,0.0,96,0.00,,,0.00,Wunderground v.1.15,2013-04-08 09:20:00,
2013-04-08 05:22:00,62.7,61.5,30.01,ESE,103,0.0,0.0,96,0.00,,,0.00,Wunderground v.1.15,2013-04-08 09:22:00,
2013-04-08 05:23:00,62.7,61.5,30.01,ESE,103,0.0,0.0,96,0.00,,,0.00,Wunderground v.1.15,2013-04-08 09:23:00,
2013-04-08 05:25:00,62.6,61.4,30.01,ESE,103,0.0,0.0,96,0.00,,,0.00,Wunderground v.1.15,2013-04-08 09:25:00,
2013-04-08 05:29:00,62.4,61.2,30.01,ESE,103,0.0,0.0,96,0.00,,,0.00,Wunderground v.1.15,2013-04-08 09:29:00,
2013-04-08 05:30:00,62.4,61.2,30.01,ESE,103,0.0,0.0,96,0.00,,,0.00,Wunderground v.1.15,2013-04-08 09:30:00,
2013-04-08 05:34:00,62.2,60.8,30.01,ESE,103,0.0,0.0,95,0.00,,,0.00,Wunderground v.1.15,2013-04-08 09:34:00,
2013-04-08 05:36:00,62.2,60.8,30.01,ESE,103,0.0,0.0,95,0.00,,,0.00,Wunderground v.1.15,2013-04-08 09:36:00,
2013-04-08 05:37:00,62.2,60.8,30.01,ESE,103,0.0,0.0,95,0.00,,,0.00,Wunderground v.1.15,2013-04-08 09:37:00,
2013-04-08 05:39:00,62.2,61.0,30.01,ESE,103,0.0,0.0,96,0.00,,,0.00,Wunderground v.1.15,2013-04-08 09:39:00,
2013-04-08 05:41:00,62.3,60.8,30.01,ESE,103,0.0,0.0,95,0.00,,,0.00,Wunderground v.1.15,2013-04-08 09:41:00,
2013-04-08 05:42:00,62.3,61.1,30.01,ESE,103,0.0,0.0,96,0.00,,,0.00,Wunderground v.1.15,2013-04-08 09:42:00,
2013-04-08 05:44:00,62.3,61.1,30.01,ESE,103,0.0,0.0,96,0.00,,,0.00,Wunderground v.1.15,2013-04-08 09:44:00,
2013-04-08 05:46:00,62.2,60.8,30.01,ESE,103,0.0,0.0,95,0.00,,,0.00,Wunderground v.1.15,2013-04-08 09:46:00,
2013-04-08 05:47:00,62.2,60.8,30.01,ESE,103,0.0,0.0,95,0.00,,,0.00,Wunderground v.1.15,2013-04-08 09:47:00,
2013-04-08 05:50:00,62.4,61.2,30.01,ESE,103,0.0,0.0,96,0.00,,,0.00,Wunderground v.1.15,2013-04-08 09:50:00,
2013-04-08 05:51:00,62.4,61.2,30.01,ESE,103,0.0,0.0,96,0.00,,,0.00,Wunderground v.1.15,2013-04-08 09:51:00,
2013-04-08 05:52:00,62.4,61.2,30.01,ESE,103,0.0,0.0,96,0.00,,,0.00,Wunderground v.1.15,2013-04-08 09:52:00,
2013-04-08 05:56:00,62.6,61.4,30.02,ESE,103,0.0,0.0,96,0.00,,,0.00,Wunderground v.1.15,2013-04-08 09:56:00,
2013-04-08 05:57:00,62.6,61.4,30.02,ESE,103,0.0,0.0,96,0.00,,,0.00,Wunderground v.1.15,2013-04-08 09:57:00,
2013-04-08 06:01:00,62.8,61.3,30.02,ESE,103,0.0,0.0,95,0.00,,,0.00,Wunderground v.1.15,2013-04-08 10:01:00,
2013-04-08 06:02:00,62.8,61.3,30.02,ESE,103,0.0,0.0,95,0.00,,,0.00,Wunderground v.1.15,2013-04-08 10:02:00,
2013-04-08 06:03:00,62.8,61.3,30.02,ESE,103,0.0,0.0,95,0.00,,,0.00,Wunderground v.1.15,2013-04-08 10:03:00,
2013-04-08 06:07:00,62.5,61.0,30.02,ESE,103,0.0,0.0,95,0.00,,,0.00,Wunderground v.1.15,2013-04-08 10:07:00,
2013-04-08 06:08:00,62.4,60.9,30.02,ESE,103,0.0,0.0,95,0.00,,,0.00,Wunderground v.1.15,2013-04-08 10:08:00,
2013-04-08 06:12:00,62.4,60.9,30.02,ESE,103,0.0,0.0,95,0.00,,,0.00,Wunderground v.1.15,2013-04-08 10:12:00,
2013-04-08 06:13:00,62.4,60.9,30.02,ESE,103,0.0,0.0,95,0.00,,,0.00,Wunderground v.1.15,2013-04-08 10:13:00,
2013-04-08 06:17:00,62.4,60.9,30.02,ESE,103,0.0,0.0,95,0.00,,,0.00,Wunderground v.1.15,2013-04-08 10:17:00,
2013-04-08 06:18:00,62.4,60.9,30.02,ESE,103,0.0,0.0,95,0.00,,,0.00,Wunderground v.1.15,2013-04-08 10:18:00,
2013-04-08 06:19:00,62.5,61.0,30.02,ESE,103,0.0,0.0,95,0.00,,,0.00,Wunderground v.1.15,2013-04-08 10:19:00,
2013-04-08 06:23:00,62.9,61.7,30.02,ESE,103,0.0,0.0,96,0.00,,,0.00,Wunderground v.1.15,2013-04-08 10:23:00,
2013-04-08 06:24:00,62.9,61.7,30.02,ESE,103,0.0,0.0,96,0.00,,,0.00,Wunderground v.1.15,2013-04-08 10:24:00,
2013-04-08 06:28:00,62.9,61.4,30.02,ESE,103,0.0,0.0,95,0.00,,,0.00,Wunderground v.1.15,2013-04-08 10:28:00,
2013-04-08 06:29:00,62.8,61.3,30.03,ESE,103,0.0,0.0,95,0.00,,,0.00,Wunderground v.1.15,2013-04-08 10:29:00,
2013-04-08 06:30:00,62.8,61.3,30.03,ESE,103,0.0,0.0,95,0.00,,,0.00,Wunderground v.1.15,2013-04-08 10:30:00,
2013-04-08 06:34:00,62.5,61.0,30.03,ESE,103,0.0,0.0,95,0.00,,,0.00,Wunderground v.1.15,2013-04-08 10:34:00,
2013-04-08 06:35:00,62.4,60.9,30.03,ESE,103,0.0,0.0,95,0.00,,,0.00,Wunderground v.1.15,2013-04-08 10:35:00,
2013-04-08 06:39:00,62.1,60.7,30.03,ESE,103,0.0,0.0,95,0.00,,,0.00,Wunderground v.1.15,2013-04-08 10:39:00,
2013-04-08 06:40:00,62.0,60.6,30.03,ESE,103,0.0,0.0,95,0.00,,,0.00,Wunderground v.1.15,2013-04-08 10:40:00,
2013-04-08 06:41:00,61.9,60.5,30.03,ESE,103,0.0,0.0,95,0.00,,,0.00,Wunderground v.1.15,2013-04-08 10:41:00,
2013-04-08 06:44:00,61.5,60.1,30.03,ESE,103,0.0,0.0,95,0.00,,,0.00,Wunderground v.1.15,2013-04-08 10:44:00,
2013-04-08 06:45:00,61.5,60.1,30.03,ESE,103,0.0,0.0,95,0.00,,,0.00,Wunderground v.1.15,2013-04-08 10:45:00,
2013-04-08 06:47:00,61.5,60.1,30.04,ESE,103,0.0,0.0,95,0.00,,,0.00,Wunderground v.1.15,2013-04-08 10:47:00,
2013-04-08 06:49:00,61.4,60.0,30.03,ESE,103,0.0,0.0,95,0.00,,,0.00,Wunderground v.1.15,2013-04-08 10:49:00,
2013-04-08 06:50:00,61.4,60.0,30.03,ESE,103,0.0,0.0,95,0.00,,,0.00,Wunderground v.1.15,2013-04-08 10:50:00,
2013-04-08 06:52:00,61.2,59.8,30.03,ESE,103,0.0,0.0,95,0.00,,,0.00,Wunderground v.1.15,2013-04-08 10:52:00,
2013-04-08 06:55:00,61.4,60.0,30.03,ESE,103,0.0,0.0,95,0.00,,,0.00,Wunderground v.1.15,2013-04-08 10:55:00,
2013-04-08 06:57:00,61.4,60.0,30.04,ESE,103,0.0,0.0,95,0.00,,,0.00,Wunderground v.1.15,2013-04-08 10:57:00,
2013-04-08 07:00:00,61.3,59.9,30.04,ESE,103,0.0,0.0,95,0.00,,,0.00,Wunderground v.1.15,2013-04-08 11:00:00,
2013-04-08 07:01:00,61.3,59.9,30.04,ESE,103,0.0,0.0,95,0.00,,,0.00,Wunderground v.1.15,2013-04-08 11:01:00,
2013-04-08 07:02:00,61.3,59.9,30.04,ESE,103,0.0,0.0,95,0.00,,,0.00,Wunderground v.1.15,2013-04-08 11:02:00,
2013-04-08 07:05:00,61.2,59.8,30.04,ESE,103,0.0,0.0,95,0.00,,,0.00,Wunderground v.1.15,2013-04-08 11:05:00,
2013-04-08 07:06:00,61.1,59.7,30.04,ESE,103,0.0,0.0,95,0.00,,,0.00,Wunderground v.1.15,2013-04-08 11:06:00,
2013-04-08 07:07:00,61.1,59.7,30.04,ESE,103,0.0,0.0,95,0.00,,,0.00,Wunderground v.1.15,2013-04-08 11:07:00,
2013-04-08 07:10:00,61.0,59.6,30.04,ESE,103,0.0,0.0,95,0.00,,,0.00,Wunderground v.1.15,2013-04-08 11:10:00,
2013-04-08 07:12:00,61.0,59.6,30.04,ESE,103,0.0,0.0,95,0.00,,,0.00,Wunderground v.1.15,2013-04-08 11:12:00,
2013-04-08 07:15:00,61.0,59.6,30.04,ESE,103,0.0,0.0,95,0.00,,,0.00,Wunderground v.1.15,2013-04-08 11:15:00,
2013-04-08 07:17:00,61.1,60.0,30.04,ESE,103,0.0,0.0,96,0.00,,,0.00,Wunderground v.1.15,2013-04-08 11:17:00,
2013-04-08 07:21:00,61.2,60.1,30.04,ESE,103,0.0,0.0,96,0.00,,,0.00,Wunderground v.1.15,2013-04-08 11:21:00,
2013-04-08 07:22:00,61.3,60.2,30.04,ESE,103,0.0,0.0,96,0.00,,,0.00,Wunderground v.1.15,2013-04-08 11:22:00,
2013-04-08 07:23:00,61.4,60.2,30.05,ESE,103,0.0,0.0,96,0.00,,,0.00,Wunderground v.1.15,2013-04-08 11:23:00,
2013-04-08 07:27:00,61.8,60.6,30.05,ESE,103,0.0,0.0,96,0.00,,,0.00,Wunderground v.1.15,2013-04-08 11:27:00,
2013-04-08 07:28:00,61.8,60.6,30.05,ESE,103,0.0,0.0,96,0.00,,,0.00,Wunderground v.1.15,2013-04-08 11:28:00,
2013-04-08 07:32:00,62.0,60.8,30.05,ESE,103,0.0,0.0,96,0.00,,,0.00,Wunderground v.1.15,2013-04-08 11:32:00,
2013-04-08 07:33:00,62.0,60.8,30.05,ESE,103,0.0,0.0,96,0.00,,,0.00,Wunderground v.1.15,2013-04-08 11:33:00,
2013-04-08 07:38:00,62.4,61.2,30.05,ESE,103,0.0,0.0,96,0.00,,,0.00,Wunderground v.1.15,2013-04-08 11:38:00,
2013-04-08 07:39:00,62.4,61.2,30.05,ESE,103,0.0,0.0,96,0.00,,,0.00,Wunderground v.1.15,2013-04-08 11:39:00,
2013-04-08 07:43:00,62.7,61.5,30.05,ESE,103,0.0,0.0,96,0.00,,,0.00,Wunderground v.1.15,2013-04-08 11:43:00,
2013-04-08 07:44:00,62.7,61.5,30.05,ESE,103,0.0,0.0,96,0.00,,,0.00,Wunderground v.1.15,2013-04-08 11:44:00,
2013-04-08 07:48:00,63.3,62.1,30.05,ESE,103,0.0,0.0,96,0.00,,,0.00,Wunderground v.1.15,2013-04-08 11:48:00,
2013-04-08 07:49:00,63.4,62.2,30.05,ESE,103,0.0,0.0,96,0.00,,,0.00,Wunderground v.1.15,2013-04-08 11:49:00,
2013-04-08 07:54:00,63.7,62.5,30.05,ESE,103,0.0,0.0,96,0.00,,,0.00,Wunderground v.1.15,2013-04-08 11:54:00,
2013-04-08 07:55:00,63.7,62.5,30.05,ESE,103,0.0,0.0,96,0.00,,,0.00,Wunderground v.1.15,2013-04-08 11:55:00,
2013-04-08 07:59:00,64.3,63.1,30.05,ESE,103,0.0,0.0,96,0.00,,,0.00,Wunderground v.1.15,2013-04-08 11:59:00,
2013-04-08 08:00:00,64.4,63.2,30.05,ESE,103,0.0,0.0,96,0.00,,,0.00,Wunderground v.1.15,2013-04-08 12:00:00,
2013-04-08 08:04:00,64.7,63.5,30.05,ESE,103,0.0,0.0,96,0.00,,,0.00,Wunderground v.1.15,2013-04-08 12:04:00,
2013-04-08 08:05:00,64.8,63.6,30.05,ESE,103,0.0,0.0,96,0.00,,,0.00,Wunderground v.1.15,2013-04-08 12:05:00,
2013-04-08 08:06:00,64.9,63.7,30.05,ESE,103,0.0,0.0,96,0.00,,,0.00,Wunderground v.1.15,2013-04-08 12:06:00,
2013-04-08 08:10:00,65.5,64.3,30.06,ESE,103,0.0,0.0,96,0.00,,,0.00,Wunderground v.1.15,2013-04-08 12:10:00,
2013-04-08 08:12:00,66.1,64.9,30.06,ESE,103,0.0,0.0,96,0.00,,,0.00,Wunderground v.1.15,2013-04-08 12:12:00,
2013-04-08 08:15:00,66.8,65.6,30.06,ESE,103,0.0,0.0,96,0.00,,,0.00,Wunderground v.1.15,2013-04-08 12:15:00,
2013-04-08 08:17:00,67.2,66.0,30.06,ESE,103,0.0,0.0,96,0.00,,,0.00,Wunderground v.1.15,2013-04-08 12:17:00,
2013-04-08 08:20:00,67.7,66.2,30.06,ESE,103,0.0,0.0,95,0.00,,,0.00,Wunderground v.1.15,2013-04-08 12:20:00,
2013-04-08 08:22:00,68.2,66.7,30.06,ESE,103,0.0,0.0,95,0.00,,,0.00,Wunderground v.1.15,2013-04-08 12:22:00,
2013-04-08 08:25:00,68.9,67.1,30.06,ESE,103,0.0,0.0,94,0.00,,,0.00,Wunderground v.1.15,2013-04-08 12:25:00,
2013-04-08 08:26:00,69.1,67.3,30.06,ESE,103,0.0,0.0,94,0.00,,,0.00,Wunderground v.1.15,2013-04-08 12:26:00,
2013-04-08 08:28:00,69.4,67.3,30.06,ESE,103,0.0,0.0,93,0.00,,,0.00,Wunderground v.1.15,2013-04-08 12:28:00,
2013-04-08 08:30:00,69.7,67.0,30.06,ESE,103,0.0,0.0,91,0.00,,,0.00,Wunderground v.1.15,2013-04-08 12:30:00,
2013-04-08 08:31:00,69.7,67.0,30.06,ESE,103,0.0,0.0,91,0.00,,,0.00,Wunderground v.1.15,2013-04-08 12:31:00,
2013-04-08 08:32:00,69.9,67.2,30.06,ESE,103,0.0,0.0,91,0.00,,,0.00,Wunderground v.1.15,2013-04-08 12:32:00,
2013-04-08 08:35:00,70.6,67.5,30.06,ESE,103,0.0,0.0,90,0.00,,,0.00,Wunderground v.1.15,2013-04-08 12:35:00,
2013-04-08 08:37:00,71.2,67.8,30.06,ESE,103,0.0,0.0,89,0.00,,,0.00,Wunderground v.1.15,2013-04-08 12:37:00,
2013-04-08 08:40:00,71.5,67.1,30.06,ESE,103,0.0,0.0,86,0.00,,,0.00,Wunderground v.1.15,2013-04-08 12:40:00,
2013-04-08 08:42:00,71.5,66.8,30.06,ESE,103,0.0,0.0,85,0.00,,,0.00,Wunderground v.1.15,2013-04-08 12:42:00,
2013-04-08 08:43:00,71.4,66.7,30.06,ESE,103,0.0,0.0,85,0.00,,,0.00,Wunderground v.1.15,2013-04-08 12:43:00,
2013-04-08 08:45:00,71.5,66.8,30.06,ESE,103,0.0,0.0,85,0.00,,,0.00,Wunderground v.1.15,2013-04-08 12:45:00,
2013-04-08 08:46:00,71.4,66.7,30.06,ESE,103,0.0,0.0,85,0.00,,,0.00,Wunderground v.1.15,2013-04-08 12:46:00,
2013-04-08 08:47:00,71.4,66.7,30.06,ESE,103,0.0,0.0,85,0.00,,,0.00,Wunderground v.1.15,2013-04-08 12:47:00,
2013-04-08 08:48:00,71.4,66.7,30.06,ESE,103,0.0,0.0,85,0.00,,,0.00,Wunderground v.1.15,2013-04-08 12:48:00,
2013-04-08 08:51:00,71.4,66.3,30.06,ESE,103,0.0,0.0,84,0.00,,,0.00,Wunderground v.1.15,2013-04-08 12:51:00,
2013-04-08 08:52:00,71.5,66.4,30.06,ESE,103,0.0,0.0,84,0.00,,,0.00,Wunderground v.1.15,2013-04-08 12:52:00,
2013-04-08 08:53:00,71.5,66.4,30.07,ESE,103,0.0,0.0,84,0.00,,,0.00,Wunderground v.1.15,2013-04-08 12:53:00,
2013-04-08 08:54:00,71.6,66.5,30.07,ESE,103,0.0,0.0,84,0.00,,,0.00,Wunderground v.1.15,2013-04-08 12:54:00,
2013-04-08 08:57:00,71.7,66.3,30.06,ESE,103,0.0,0.0,83,0.00,,,0.00,Wunderground v.1.15,2013-04-08 12:57:00,
2013-04-08 08:59:00,71.9,66.5,30.07,ESE,103,0.0,0.0,83,0.00,,,0.00,Wunderground v.1.15,2013-04-08 12:59:00,
2013-04-08 09:02:00,72.2,66.4,30.07,ESE,103,0.0,0.0,82,0.00,,,0.00,Wunderground v.1.15,2013-04-08 13:02:00,
2013-04-08 09:03:00,72.3,66.5,30.07,ESE,103,0.0,0.0,82,0.00,,,0.00,Wunderground v.1.15,2013-04-08 13:03:00,
2013-04-08 09:04:00,72.4,66.6,30.07,ESE,103,0.0,0.0,82,0.00,,,0.00,Wunderground v.1.15,2013-04-08 13:04:00,
2013-04-08 09:07:00,72.6,66.4,30.07,ESE,103,0.0,0.0,81,0.00,,,0.00,Wunderground v.1.15,2013-04-08 13:07:00,
2013-04-08 09:08:00,72.7,66.5,30.07,ESE,103,0.0,0.0,81,0.00,,,0.00,Wunderground v.1.15,2013-04-08 13:08:00,
2013-04-08 09:09:00,72.9,67.1,30.07,ESE,103,0.0,0.0,82,0.00,,,0.00,Wunderground v.1.15,2013-04-08 13:09:00,
2013-04-08 09:12:00,73.1,66.9,30.07,ESE,103,0.0,0.0,81,0.00,,,0.00,Wunderground v.1.15,2013-04-08 13:12:00,
2013-04-08 09:13:00,73.1,66.6,30.07,ESE,103,0.0,0.0,80,0.00,,,0.00,Wunderground v.1.15,2013-04-08 13:13:00,
2013-04-08 09:14:00,73.1,66.6,30.08,ESE,103,0.0,0.0,80,0.00,,,0.00,Wunderground v.1.15,2013-04-08 13:14:00,
2013-04-08 09:16:00,73.2,66.7,30.07,ESE,103,2.0,2.0,80,0.00,,,0.00,Wunderground v.1.15,2013-04-08 13:16:00,
2013-04-08 09:18:00,73.4,66.5,30.07,East,95,0.0,5.0,79,0.00,,,0.00,Wunderground v.1.15,2013-04-08 13:18:00,
2013-04-08 09:19:00,73.4,66.5,30.07,East,95,0.0,5.0,79,0.00,,,0.00,Wunderground v.1.15,2013-04-08 13:19:00,
2013-04-08 09:20:00,73.5,66.2,30.07,East,95,0.0,0.0,78,0.00,,,0.00,Wunderground v.1.15,2013-04-08 13:20:00,
2013-04-08 09:21:00,73.5,66.2,30.07,East,95,0.0,1.0,78,0.00,,,0.00,Wunderground v.1.15,2013-04-08 13:21:00,
2013-04-08 09:23:00,73.7,66.0,30.07,East,96,0.0,2.0,77,0.00,,,0.00,Wunderground v.1.15,2013-04-08 13:23:00,
2013-04-08 09:24:00,73.8,66.5,30.07,East,96,0.0,2.0,78,0.00,,,0.00,Wunderground v.1.15,2013-04-08 13:24:00,
2013-04-08 09:25:00,73.9,66.6,30.07,East,96,2.0,2.0,78,0.00,,,0.00,Wunderground v.1.15,2013-04-08 13:25:00,
2013-04-08 09:26:00,74.0,66.3,30.07,East,96,2.0,4.0,77,0.00,,,0.00,Wunderground v.1.15,2013-04-08 13:26:00,
2013-04-08 09:29:00,74.2,65.8,30.07,ESE,104,0.0,4.0,75,0.00,,,0.00,Wunderground v.1.15,2013-04-08 13:29:00,
2013-04-08 09:30:00,74.2,65.8,30.07,ESE,104,0.0,1.0,75,0.00,,,0.00,Wunderground v.1.15,2013-04-08 13:30:00,
2013-04-08 09:31:00,74.4,66.0,30.07,ESE,111,1.0,1.0,75,0.00,,,0.00,Wunderground v.1.15,2013-04-08 13:31:00,
2013-04-08 09:34:00,74.7,66.2,30.07,East,98,3.0,5.0,75,0.00,,,0.00,Wunderground v.1.15,2013-04-08 13:34:00,
2013-04-08 09:35:00,74.7,65.9,30.07,East,90,1.0,7.0,74,0.00,,,0.00,Wunderground v.1.15,2013-04-08 13:35:00,
2013-04-08 09:36:00,74.8,65.6,30.07,East,92,0.0,7.0,73,0.00,,,0.00,Wunderground v.1.15,2013-04-08 13:36:00,
2013-04-08 09:37:00,74.8,65.6,30.07,East,94,0.0,7.0,73,0.00,,,0.00,Wunderground v.1.15,2013-04-08 13:37:00,
2013-04-08 09:39:00,75.0,66.1,30.07,ESE,105,5.0,7.0,74,0.00,,,0.00,Wunderground v.1.15,2013-04-08 13:39:00,
2013-04-08 09:40:00,75.0,65.4,30.07,ESE,115,5.0,8.0,72,0.00,,,0.00,Wunderground v.1.15,2013-04-08 13:40:00,
2013-04-08 09:42:00,75.0,65.0,30.08,ESE,117,2.0,8.0,71,0.00,,,0.00,Wunderground v.1.15,2013-04-08 13:42:00,
2013-04-08 09:45:00,75.0,65.0,30.07,SSE,150,1.0,8.0,71,0.00,,,0.00,Wunderground v.1.15,2013-04-08 13:45:00,
2013-04-08 09:47:00,75.1,65.1,30.08,SE,134,4.0,9.0,71,0.00,,,0.00,Wunderground v.1.15,2013-04-08 13:47:00,
2013-04-08 09:50:00,75.2,64.7,30.07,ESE,110,0.0,4.0,70,0.00,,,0.00,Wunderground v.1.15,2013-04-08 13:50:00,
2013-04-08 09:51:00,75.2,65.1,30.07,ESE,110,1.0,4.0,71,0.00,,,0.00,Wunderground v.1.15,2013-04-08 13:51:00,
2013-04-08 09:52:00,75.3,64.8,30.08,East,101,0.0,5.0,70,0.00,,,0.00,Wunderground v.1.15,2013-04-08 13:52:00,
2013-04-08 09:53:00,75.3,64.4,30.08,ESE,104,4.0,5.0,69,0.00,,,0.00,Wunderground v.1.15,2013-04-08 13:53:00,
2013-04-08 09:55:00,75.3,64.4,30.08,ESE,103,7.0,7.0,69,0.00,,,0.00,Wunderground v.1.15,2013-04-08 13:55:00,
2013-04-08 09:57:00,75.3,64.8,30.08,ESE,119,0.0,7.0,70,0.00,,,0.00,Wunderground v.1.15,2013-04-08 13:57:00,
2013-04-08 09:58:00,75.3,65.2,30.08,ESE,103,2.0,7.0,71,0.00,,,0.00,Wunderground v.1.15,2013-04-08 13:58:00,
2013-04-08 10:01:00,75.4,65.3,30.08,SE,130,1.0,6.0,71,0.00,,,0.00,Wunderground v.1.15,2013-04-08 14:01:00,
2013-04-08 10:02:00,75.3,64.8,30.08,ESE,116,0.0,6.0,70,0.00,,,0.00,Wunderground v.1.15,2013-04-08 14:02:00,
2013-04-08 10:03:00,75.3,64.8,30.08,SE,127,5.0,8.0,70,0.00,,,0.00,Wunderground v.1.15,2013-04-08 14:03:00,
2013-04-08 10:06:00,75.4,65.3,30.08,East,101,0.0,8.0,71,0.00,,,0.00,Wunderground v.1.15,2013-04-08 14:06:00,
2013-04-08 10:08:00,75.4,65.3,30.08,East,99,2.0,8.0,71,0.00,,,0.00,Wunderground v.1.15,2013-04-08 14:08:00,
2013-04-08 10:11:00,75.7,65.2,30.08,SE,139,6.0,8.0,70,0.00,,,0.00,Wunderground v.1.15,2013-04-08 14:11:00,
2013-04-08 10:13:00,75.7,65.2,30.08,ESE,121,5.0,9.0,70,0.00,,,0.00,Wunderground v.1.15,2013-04-08 14:13:00,
2013-04-08 10:14:00,75.7,64.8,30.08,SE,128,1.0,9.0,69,0.00,,,0.00,Wunderground v.1.15,2013-04-08 14:14:00,
2013-04-08 10:17:00,75.5,65.0,30.08,ESE,109,0.0,9.0,70,0.00,,,0.00,Wunderground v.1.15,2013-04-08 14:17:00,
2013-04-08 10:18:00,75.5,64.6,30.08,ESE,111,1.0,9.0,69,0.00,,,0.00,Wunderground v.1.15,2013-04-08 14:18:00,
2013-04-08 10:19:00,75.5,65.0,30.08,ESE,122,3.0,9.0,70,0.00,,,0.00,Wunderground v.1.15,2013-04-08 14:19:00,
2013-04-08 10:20:00,75.5,64.6,30.08,ESE,117,2.0,6.0,69,0.00,,,0.00,Wunderground v.1.15,2013-04-08 14:20:00,
2013-04-08 10:23:00,75.6,65.1,30.08,ESE,107,6.0,8.0,70,0.00,,,0.00,Wunderground v.1.15,2013-04-08 14:23:00,
2013-04-08 10:24:00,75.7,64.8,30.08,ESE,123,3.0,9.0,69,0.00,,,0.00,Wunderground v.1.15,2013-04-08 14:24:00,
2013-04-08 10:25:00,75.6,65.1,30.08,SE,124,0.0,9.0,70,0.00,,,0.00,Wunderground v.1.15,2013-04-08 14:25:00,
2013-04-08 10:28:00,75.6,64.7,30.08,ESE,113,1.0,9.0,69,0.00,,,0.00,Wunderground v.1.15,2013-04-08 14:28:00,
2013-04-08 10:29:00,75.6,64.7,30.08,ESE,104,5.0,9.0,69,0.00,,,0.00,Wunderground v.1.15,2013-04-08 14:29:00,
2013-04-08 10:30:00,75.6,64.7,30.08,ESE,116,4.0,4.0,69,0.00,,,0.00,Wunderground v.1.15,2013-04-08 14:30:00,
2013-04-08 10:31:00,75.7,64.8,30.08,ESE,111,6.0,6.0,69,0.00,,,0.00,Wunderground v.1.15,2013-04-08 14:31:00,
2013-04-08 10:33:00,75.8,64.9,30.08,East,95,8.0,8.0,69,0.00,,,0.00,Wunderground v.1.15,2013-04-08 14:33:00,
2013-04-08 10:35:00,75.9,64.6,30.08,East,95,6.0,9.0,68,0.00,,,0.00,Wunderground v.1.15,2013-04-08 14:35:00,
2013-04-08 10:36:00,75.9,64.2,30.08,East,98,0.0,9.0,67,0.00,,,0.00,Wunderground v.1.15,2013-04-08 14:36:00,
2013-04-08 10:39:00,75.8,64.5,30.08,East,98,0.0,9.0,68,0.00,,,0.00,Wunderground v.1.15,2013-04-08 14:39:00,
2013-04-08 10:40:00,75.9,65.0,30.08,East,94,7.0,7.0,69,0.00,,,0.00,Wunderground v.1.15,2013-04-08 14:40:00,
2013-04-08 10:41:00,76.0,65.1,30.08,East,90,1.0,7.0,69,0.00,,,0.00,Wunderground v.1.15,2013-04-08 14:41:00,
2013-04-08 10:44:00,76.2,65.3,30.08,SE,140,0.0,8.0,69,0.00,,,0.00,Wunderground v.1.15,2013-04-08 14:44:00,
2013-04-08 10:45:00,76.2,65.3,30.08,ESE,117,4.0,8.0,69,0.00,,,0.00,Wunderground v.1.15,2013-04-08 14:45:00,
2013-04-08 10:47:00,76.3,65.4,30.08,SSE,159,0.0,8.0,69,0.00,,,0.00,Wunderground v.1.15,2013-04-08 14:47:00,
2013-04-08 10:50:00,76.6,64.8,30.09,SE,133,0.0,6.0,67,0.00,,,0.00,Wunderground v.1.15,2013-04-08 14:50:00,
2013-04-08 10:51:00,76.7,64.9,30.09,ESE,110,6.0,9.0,67,0.00,,,0.00,Wunderground v.1.15,2013-04-08 14:51:00,
2013-04-08 10:52:00,76.7,64.5,30.09,ESE,107,2.0,9.0,66,0.00,,,0.00,Wunderground v.1.15,2013-04-08 14:52:00,
2013-04-08 10:55:00,76.8,65.0,30.09,ESE,102,4.0,9.0,67,0.00,,,0.00,Wunderground v.1.15,2013-04-08 14:55:00,
2013-04-08 10:56:00,76.8,64.6,30.09,ESE,105,4.0,9.0,66,0.00,,,0.00,Wunderground v.1.15,2013-04-08 14:56:00,
2013-04-08 10:57:00,76.7,64.0,30.09,East,90,0.0,9.0,65,0.00,,,0.00,Wunderground v.1.15,2013-04-08 14:57:00,
2013-04-08 11:00:00,76.4,64.2,30.09,ESE,122,2.0,3.0,66,0.00,,,0.00,Wunderground v.1.15,2013-04-08 15:00:00,
2013-04-08 11:02:00,76.4,64.6,30.09,SSE,153,4.0,6.0,67,0.00,,,0.00,Wunderground v.1.15,2013-04-08 15:02:00,
2013-04-08 11:06:00,76.4,65.1,30.09,SE,141,1.0,8.0,68,0.00,,,0.00,Wunderground v.1.15,2013-04-08 15:06:00,
2013-04-08 11:07:00,76.5,64.3,30.09,SSE,148,0.0,8.0,66,0.00,,,0.00,Wunderground v.1.15,2013-04-08 15:07:00,
2013-04-08 11:11:00,76.5,63.0,30.09,East,94,0.0,3.0,63,0.00,,,0.00,Wunderground v.1.15,2013-04-08 15:11:00,
2013-04-08 11:12:00,76.6,63.5,30.09,East,96,2.0,7.0,64,0.00,,,0.00,Wunderground v.1.15,2013-04-08 15:12:00,
2013-04-08 11:13:00,76.8,63.7,30.09,NE,38,4.0,7.0,64,0.00,,,0.00,Wunderground v.1.15,2013-04-08 15:13:00,
2013-04-08 11:16:00,77.7,64.1,30.09,SE,127,4.0,7.0,63,0.00,,,0.00,Wunderground v.1.15,2013-04-08 15:16:00,
2013-04-08 11:17:00,77.7,64.1,30.09,SE,126,5.0,7.0,63,0.00,,,0.00,Wunderground v.1.15,2013-04-08 15:17:00,
2013-04-08 11:19:00,77.4,62.9,30.09,ESE,113,0.0,7.0,61,0.00,,,0.00,Wunderground v.1.15,2013-04-08 15:19:00,
2013-04-08 11:21:00,77.0,63.0,30.09,ESE,113,0.0,2.0,62,0.00,,,0.00,Wunderground v.1.15,2013-04-08 15:21:00,
2013-04-08 11:23:00,76.9,63.8,30.09,ESE,108,1.0,2.0,64,0.00,,,0.00,Wunderground v.1.15,2013-04-08 15:23:00,
2013-04-08 11:24:00,77.0,63.9,30.09,ESE,103,4.0,8.0,64,0.00,,,0.00,Wunderground v.1.15,2013-04-08 15:24:00,
2013-04-08 11:27:00,77.1,64.4,30.09,ESE,113,6.0,10.0,65,0.00,,,0.00,Wunderground v.1.15,2013-04-08 15:27:00,
2013-04-08 11:28:00,77.1,64.4,30.09,SE,126,5.0,10.0,65,0.00,,,0.00,Wunderground v.1.15,2013-04-08 15:28:00,
2013-04-08 11:29:00,77.1,64.9,30.09,East,98,4.0,4.0,66,0.00,,,0.00,Wunderground v.1.15,2013-04-08 15:29:00,
2013-04-08 11:33:00,77.3,64.6,30.09,East,100,0.0,6.0,65,0.00,,,0.00,Wunderground v.1.15,2013-04-08 15:33:00,
2013-04-08 11:34:00,77.4,64.3,30.09,ESE,110,0.0,6.0,64,0.00,,,0.00,Wunderground v.1.15,2013-04-08 15:34:00,
2013-04-08 11:38:00,77.1,64.0,30.09,ESE,110,0.0,6.0,64,0.00,,,0.00,Wunderground v.1.15,2013-04-08 15:38:00,
2013-04-08 11:39:00,77.2,64.5,30.09,ESE,102,0.0,6.0,65,0.00,,,0.00,Wunderground v.1.15,2013-04-08 15:39:00,
2013-04-08 11:41:00,77.6,64.9,30.09,East,99,1.0,1.0,65,0.00,,,0.00,Wunderground v.1.15,2013-04-08 15:41:00,
2013-04-08 11:43:00,77.4,64.7,30.09,East,100,0.0,1.0,65,0.00,,,0.00,Wunderground v.1.15,2013-04-08 15:43:00,
2013-04-08 11:44:00,77.3,64.6,30.09,East,101,0.0,4.0,65,0.00,,,0.00,Wunderground v.1.15,2013-04-08 15:44:00,
2013-04-08 11:46:00,77.2,64.1,30.09,East,86,4.0,6.0,64,0.00,,,0.00,Wunderground v.1.15,2013-04-08 15:46:00,
2013-04-08 11:48:00,77.2,63.6,30.09,SE,128,1.0,6.0,63,0.00,,,0.00,Wunderground v.1.15,2013-04-08 15:48:00,
2013-04-08 11:49:00,77.1,63.5,30.09,East,94,5.0,6.0,63,0.00,,,0.00,Wunderground v.1.15,2013-04-08 15:49:00,
2013-04-08 11:52:00,77.1,64.4,30.08,ESE,103,0.0,6.0,65,0.00,,,0.00,Wunderground v.1.15,2013-04-08 15:52:00,
2013-04-08 11:53:00,77.0,64.3,30.09,ESE,109,0.0,6.0,65,0.00,,,0.00,Wunderground v.1.15,2013-04-08 15:53:00,
2013-04-08 11:54:00,77.0,64.3,30.09,ESE,112,5.0,8.0,65,0.00,,,0.00,Wunderground v.1.15,2013-04-08 15:54:00,
2013-04-08 11:58:00,77.1,64.0,30.09,SE,126,2.0,9.0,64,0.00,,,0.00,Wunderground v.1.15,2013-04-08 15:58:00,
2013-04-08 11:59:00,77.2,64.1,30.09,SE,125,0.0,9.0,64,0.00,,,0.00,Wunderground v.1.15,2013-04-08 15:59:00,
2013-04-08 12:00:00,77.3,63.7,30.09,East,98,0.0,5.0,63,0.00,,,0.00,Wunderground v.1.15,2013-04-08 16:00:00,
2013-04-08 12:03:00,77.5,63.9,30.09,ESE,105,2.0,10.0,63,0.00,,,0.00,Wunderground v.1.15,2013-04-08 16:03:00,
2013-04-08 12:04:00,77.5,63.5,30.09,ESE,117,1.0,10.0,62,0.00,,,0.00,Wunderground v.1.15,2013-04-08 16:04:00,
2013-04-08 12:05:00,77.5,64.4,30.09,SE,125,2.0,10.0,64,0.00,,,0.00,Wunderground v.1.15,2013-04-08 16:05:00,
2013-04-08 12:09:00,77.4,63.8,30.08,ESE,105,1.0,10.0,63,0.00,,,0.00,Wunderground v.1.15,2013-04-08 16:09:00,
2013-04-08 12:10:00,77.3,63.3,30.08,ESE,105,0.0,5.0,62,0.00,,,0.00,Wunderground v.1.15,2013-04-08 16:10:00,
2013-04-08 12:14:00,78.1,64.0,30.09,ESE,111,2.0,6.0,62,0.00,,,0.00,Wunderground v.1.15,2013-04-08 16:14:00,
2013-04-08 12:15:00,78.4,64.8,30.08,East,84,2.0,6.0,63,0.00,,,0.00,Wunderground v.1.15,2013-04-08 16:15:00,
2013-04-08 12:20:00,78.0,65.7,30.09,East,95,5.0,7.0,66,0.00,,,0.00,Wunderground v.1.15,2013-04-08 16:20:00,
2013-04-08 12:21:00,78.0,65.7,30.09,East,89,9.0,10.0,66,0.00,,,0.00,Wunderground v.1.15,2013-04-08 16:21:00,
2013-04-08 12:25:00,78.1,64.9,30.08,East,89,5.0,10.0,64,0.00,,,0.00,Wunderground v.1.15,2013-04-08 16:25:00,
2013-04-08 12:26:00,78.1,64.9,30.08,East,89,1.0,10.0,64,0.00,,,0.00,Wunderground v.1.15,2013-04-08 16:26:00,
2013-04-08 12:27:00,77.8,65.1,30.08,ENE,68,0.0,10.0,65,0.00,,,0.00,Wunderground v.1.15,2013-04-08 16:27:00,
2013-04-08 12:30:00,77.6,64.9,30.08,East,100,6.0,8.0,65,0.00,,,0.00,Wunderground v.1.15,2013-04-08 16:30:00,
2013-04-08 12:31:00,77.5,64.4,30.08,East,98,1.0,8.0,64,0.00,,,0.00,Wunderground v.1.15,2013-04-08 16:31:00,
2013-04-08 12:32:00,77.5,64.4,30.08,East,96,1.0,8.0,64,0.00,,,0.00,Wunderground v.1.15,2013-04-08 16:32:00,
2013-04-08 12:35:00,77.3,63.7,30.08,ESE,107,2.0,8.0,63,0.00,,,0.00,Wunderground v.1.15,2013-04-08 16:35:00,
2013-04-08 12:36:00,77.2,64.5,30.08,ESE,110,9.0,9.0,65,0.00,,,0.00,Wunderground v.1.15,2013-04-08 16:36:00,
2013-04-08 12:37:00,77.2,64.5,30.08,ESE,106,1.0,9.0,65,0.00,,,0.00,Wunderground v.1.15,2013-04-08 16:37:00,
2013-04-08 12:38:00,77.2,64.5,30.08,ESE,107,2.0,9.0,65,0.00,,,0.00,Wunderground v.1.15,2013-04-08 16:38:00,
2013-04-08 12:41:00,77.3,64.6,30.08,East,101,3.0,4.0,65,0.00,,,0.00,Wunderground v.1.15,2013-04-08 16:41:00,
2013-04-08 12:42:00,77.6,64.9,30.08,East,97,0.0,4.0,65,0.00,,,0.00,Wunderground v.1.15,2013-04-08 16:42:00,
2013-04-08 12:43:00,77.7,65.4,30.08,ESE,110,7.0,7.0,66,0.00,,,0.00,Wunderground v.1.15,2013-04-08 16:43:00,
2013-04-08 12:47:00,77.9,64.7,30.08,ESE,115,5.0,7.0,64,0.00,,,0.00,Wunderground v.1.15,2013-04-08 16:47:00,
2013-04-08 12:48:00,77.9,64.7,30.08,East,92,8.0,8.0,64,0.00,,,0.00,Wunderground v.1.15,2013-04-08 16:48:00,
2013-04-08 12:52:00,78.3,65.1,30.08,ENE,71,0.0,4.0,64,0.00,,,0.00,Wunderground v.1.15,2013-04-08 16:52:00,
2013-04-08 12:53:00,78.3,64.2,30.08,East,86,6.0,6.0,62,0.00,,,0.00,Wunderground v.1.15,2013-04-08 16:53:00,
2013-04-08 12:54:00,78.4,64.3,30.08,East,96,8.0,8.0,62,0.00,,,0.00,Wunderground v.1.15,2013-04-08 16:54:00,
2013-04-08 12:58:00,78.4,64.3,30.08,ENE,62,0.0,8.0,62,0.00,,,0.00,Wunderground v.1.15,2013-04-08 16:58:00,
2013-04-08 12:59:00,78.4,64.8,30.08,East,80,1.0,8.0,63,0.00,,,0.00,Wunderground v.1.15,2013-04-08 16:59:00,
2013-04-08 13:00:00,78.5,65.8,30.08,East,98,5.0,5.0,65,0.00,,,0.00,Wunderground v.1.15,2013-04-08 17:00:00,
2013-04-08 13:03:00,79.1,65.9,30.08,East,82,5.0,7.0,64,0.00,,,0.00,Wunderground v.1.15,2013-04-08 17:03:00,
2013-04-08 13:05:00,79.3,65.1,30.08,ESE,105,4.0,7.0,62,0.00,,,0.00,Wunderground v.1.15,2013-04-08 17:05:00,
2013-04-08 13:07:00,79.4,65.7,30.08,ENE,65,1.0,7.0,63,0.00,,,0.00,Wunderground v.1.15,2013-04-08 17:07:00,
2013-04-08 13:09:00,79.3,65.1,30.08,East,101,6.0,9.0,62,0.00,,,0.00,Wunderground v.1.15,2013-04-08 17:09:00,
2013-04-08 13:10:00,78.9,64.3,30.08,East,89,0.0,3.0,61,0.00,,,0.00,Wunderground v.1.15,2013-04-08 17:10:00,
2013-04-08 13:11:00,78.7,64.1,30.08,ESE,102,5.0,9.0,61,0.00,,,0.00,Wunderground v.1.15,2013-04-08 17:11:00,
2013-04-08 13:13:00,78.2,63.6,30.08,East,96,1.0,9.0,61,0.00,,,0.00,Wunderground v.1.15,2013-04-08 17:13:00,
2013-04-08 13:14:00,78.1,64.0,30.08,ESE,117,1.0,9.0,62,0.00,,,0.00,Wunderground v.1.15,2013-04-08 17:14:00,
2013-04-08 13:15:00,78.0,63.9,30.08,SSE,161,7.0,9.0,62,0.00,,,0.00,Wunderground v.1.15,2013-04-08 17:15:00,
2013-04-08 13:17:00,78.4,65.7,30.07,ENE,76,0.0,9.0,65,0.00,,,0.00,Wunderground v.1.15,2013-04-08 17:17:00,
2013-04-08 13:18:00,78.8,65.6,30.07,ENE,68,0.0,9.0,64,0.00,,,0.00,Wunderground v.1.15,2013-04-08 17:18:00,
2013-04-08 13:19:00,78.9,65.2,30.07,ENE,76,1.0,9.0,63,0.00,,,0.00,Wunderground v.1.15,2013-04-08 17:19:00,
2013-04-08 13:20:00,78.9,65.2,30.07,East,89,0.0,3.0,63,0.00,,,0.00,Wunderground v.1.15,2013-04-08 17:20:00,
2013-04-08 13:22:00,78.6,64.9,30.07,East,99,0.0,8.0,63,0.00,,,0.00,Wunderground v.1.15,2013-04-08 17:22:00,
2013-04-08 13:24:00,78.7,65.5,30.07,NNE,17,7.0,8.0,64,0.00,,,0.00,Wunderground v.1.15,2013-04-08 17:24:00,
2013-04-08 13:25:00,79.3,66.1,30.07,NE,51,0.0,8.0,64,0.00,,,0.00,Wunderground v.1.15,2013-04-08 17:25:00,
2013-04-08 13:27:00,79.5,65.3,30.07,ESE,111,8.0,8.0,62,0.00,,,0.00,Wunderground v.1.15,2013-04-08 17:27:00,
2013-04-08 13:29:00,79.1,65.9,30.06,ESE,106,0.0,8.0,64,0.00,,,0.00,Wunderground v.1.15,2013-04-08 17:29:00,
2013-04-08 13:30:00,79.1,66.3,30.06,East,88,1.0,4.0,65,0.00,,,0.00,Wunderground v.1.15,2013-04-08 17:30:00,
2013-04-08 13:31:00,79.1,66.3,30.06,East,99,0.0,4.0,65,0.00,,,0.00,Wunderground v.1.15,2013-04-08 17:31:00,
2013-04-08 13:32:00,79.3,66.1,30.06,NE,55,5.0,7.0,64,0.00,,,0.00,Wunderground v.1.15,2013-04-08 17:32:00,
2013-04-08 13:36:00,79.7,65.1,30.06,East,91,0.0,7.0,61,0.00,,,0.00,Wunderground v.1.15,2013-04-08 17:36:00,
2013-04-08 13:37:00,79.5,64.4,30.06,East,95,5.0,7.0,60,0.00,,,0.00,Wunderground v.1.15,2013-04-08 17:37:00,
2013-04-08 13:38:00,79.4,64.3,30.06,East,96,5.0,7.0,60,0.00,,,0.00,Wunderground v.1.15,2013-04-08 17:38:00,
2013-04-08 13:42:00,78.9,65.2,30.06,NE,36,3.0,5.0,63,0.00,,,0.00,Wunderground v.1.15,2013-04-08 17:42:00,
2013-04-08 13:43:00,78.9,64.8,30.06,East,98,6.0,7.0,62,0.00,,,0.00,Wunderground v.1.15,2013-04-08 17:43:00,
2013-04-08 13:47:00,77.9,63.4,30.06,ESE,118,6.0,7.0,61,0.00,,,0.00,Wunderground v.1.15,2013-04-08 17:47:00,
2013-04-08 13:48:00,77.8,64.6,30.06,ESE,115,0.0,7.0,64,0.00,,,0.00,Wunderground v.1.15,2013-04-08 17:48:00,
2013-04-08 13:53:00,77.6,64.5,30.05,East,100,8.0,8.0,64,0.00,,,0.00,Wunderground v.1.15,2013-04-08 17:53:00,
2013-04-08 13:54:00,77.6,64.0,30.06,East,88,1.0,8.0,63,0.00,,,0.00,Wunderground v.1.15,2013-04-08 17:54:00,
2013-04-08 13:55:00,77.6,64.0,30.06,NE,55,0.0,8.0,63,0.00,,,0.00,Wunderground v.1.15,2013-04-08 17:55:00,
2013-04-08 13:58:00,77.7,63.2,30.06,ENE,59,0.0,8.0,61,0.00,,,0.00,Wunderground v.1.15,2013-04-08 17:58:00,
2013-04-08 13:59:00,77.8,63.7,30.06,ESE,121,5.0,10.0,62,0.00,,,0.00,Wunderground v.1.15,2013-04-08 17:59:00,
2013-04-08 14:00:00,77.9,65.2,30.06,East,92,0.0,9.0,65,0.00,,,0.00,Wunderground v.1.15,2013-04-08 18:00:00,
2013-04-08 14:04:00,78.6,63.6,30.05,East,98,6.0,9.0,60,0.00,,,0.00,Wunderground v.1.15,2013-04-08 18:04:00,
2013-04-08 14:05:00,78.7,63.6,30.05,NE,45,0.0,9.0,60,0.00,,,0.00,Wunderground v.1.15,2013-04-08 18:05:00,
2013-04-08 14:06:00,78.7,63.6,30.05,NE,45,0.0,9.0,60,0.00,,,0.00,Wunderground v.1.15,2013-04-08 18:06:00,
2013-04-08 14:09:00,78.9,64.3,30.05,ESE,111,8.0,9.0,61,0.00,,,0.00,Wunderground v.1.15,2013-04-08 18:09:00,
2013-04-08 14:11:00,78.8,63.7,30.05,ESE,107,0.0,4.0,60,0.00,,,0.00,Wunderground v.1.15,2013-04-08 18:11:00,
2013-04-08 14:14:00,79.1,64.5,30.05,ENE,57,0.0,10.0,61,0.00,,,0.00,Wunderground v.1.15,2013-04-08 18:14:00,
2013-04-08 14:15:00,79.1,64.0,30.05,NE,51,1.0,10.0,60,0.00,,,0.00,Wunderground v.1.15,2013-04-08 18:15:00,
2013-04-08 14:16:00,79.3,64.2,30.05,NE,53,5.0,10.0,60,0.00,,,0.00,Wunderground v.1.15,2013-04-08 18:16:00,
2013-04-08 14:17:00,79.5,64.4,30.05,ENE,78,2.0,10.0,60,0.00,,,0.00,Wunderground v.1.15,2013-04-08 18:17:00,
2013-04-08 14:19:00,79.6,64.5,30.05,ENE,73,4.0,10.0,60,0.00,,,0.00,Wunderground v.1.15,2013-04-08 18:19:00,
2013-04-08 14:21:00,79.6,63.5,30.05,SE,131,8.0,8.0,58,0.00,,,0.00,Wunderground v.1.15,2013-04-08 18:21:00,
2013-04-08 14:23:00,79.3,63.7,30.05,ESE,102,6.0,9.0,59,0.00,,,0.00,Wunderground v.1.15,2013-04-08 18:23:00,
2013-04-08 14:24:00,78.7,63.2,30.04,East,88,4.0,9.0,59,0.00,,,0.00,Wunderground v.1.15,2013-04-08 18:24:00,
2013-04-08 14:26:00,78.5,63.0,30.04,ESE,114,1.0,9.0,59,0.00,,,0.00,Wunderground v.1.15,2013-04-08 18:26:00,
2013-04-08 14:28:00,78.4,63.8,30.04,SE,124,3.0,9.0,61,0.00,,,0.00,Wunderground v.1.15,2013-04-08 18:28:00,
2013-04-08 14:30:00,78.4,62.4,30.04,SE,136,1.0,5.0,58,0.00,,,0.00,Wunderground v.1.15,2013-04-08 18:30:00,
2013-04-08 14:31:00,78.3,62.3,30.04,ESE,109,1.0,5.0,58,0.00,,,0.00,Wunderground v.1.15,2013-04-08 18:31:00,
2013-04-08 14:33:00,78.3,62.8,30.04,ESE,109,0.0,5.0,59,0.00,,,0.00,Wunderground v.1.15,2013-04-08 18:33:00,
2013-04-08 14:34:00,78.4,63.4,30.04,ESE,103,9.0,9.0,60,0.00,,,0.00,Wunderground v.1.15,2013-04-08 18:34:00,
2013-04-08 14:36:00,78.8,64.2,30.04,East,100,8.0,9.0,61,0.00,,,0.00,Wunderground v.1.15,2013-04-08 18:36:00,
2013-04-08 14:37:00,79.2,63.1,30.04,ENE,61,0.0,9.0,58,0.00,,,0.00,Wunderground v.1.15,2013-04-08 18:37:00,
2013-04-08 14:38:00,79.3,63.2,30.04,ENE,62,2.0,9.0,58,0.00,,,0.00,Wunderground v.1.15,2013-04-08 18:38:00,
2013-04-08 14:40:00,79.5,63.4,30.04,East,96,5.0,6.0,58,0.00,,,0.00,Wunderground v.1.15,2013-04-08 18:40:00,
2013-04-08 14:41:00,79.2,63.1,30.04,East,97,1.0,6.0,58,0.00,,,0.00,Wunderground v.1.15,2013-04-08 18:41:00,
2013-04-08 14:43:00,78.8,62.3,30.04,ESE,105,0.0,8.0,57,0.00,,,0.00,Wunderground v.1.15,2013-04-08 18:43:00,
2013-04-08 14:44:00,78.5,62.5,30.04,ESE,123,7.0,8.0,58,0.00,,,0.00,Wunderground v.1.15,2013-04-08 18:44:00,
2013-04-08 14:45:00,78.4,62.9,30.04,ESE,122,8.0,8.0,59,0.00,,,0.00,Wunderground v.1.15,2013-04-08 18:45:00,
2013-04-08 14:47:00,78.3,62.8,30.04,East,92,2.0,9.0,59,0.00,,,0.00,Wunderground v.1.15,2013-04-08 18:47:00,
2013-04-08 14:48:00,78.4,63.8,30.04,SE,127,5.0,9.0,61,0.00,,,0.00,Wunderground v.1.15,2013-04-08 18:48:00,
2013-04-08 14:49:00,78.4,61.9,30.04,SSE,155,0.0,9.0,57,0.00,,,0.00,Wunderground v.1.15,2013-04-08 18:49:00,
2013-04-08 14:50:00,78.3,61.8,30.04,SSE,153,0.0,4.0,57,0.00,,,0.00,Wunderground v.1.15,2013-04-08 18:50:00,
2013-04-08 14:52:00,78.5,63.9,30.04,East,98,0.0,5.0,61,0.00,,,0.00,Wunderground v.1.15,2013-04-08 18:52:00,
2013-04-08 14:53:00,78.8,62.8,30.03,East,97,2.0,6.0,58,0.00,,,0.00,Wunderground v.1.15,2013-04-08 18:53:00,
2013-04-08 14:55:00,78.8,63.3,30.03,SE,128,5.0,7.0,59,0.00,,,0.00,Wunderground v.1.15,2013-04-08 18:55:00,
2013-04-08 14:57:00,79.0,63.0,30.04,NE,55,0.0,11.0,58,0.00,,,0.00,Wunderground v.1.15,2013-04-08 18:57:00,
2013-04-08 14:58:00,79.3,62.7,30.04,East,90,2.0,11.0,57,0.00,,,0.00,Wunderground v.1.15,2013-04-08 18:58:00,
2013-04-08 15:00:00,79.2,62.1,30.03,SE,126,0.0,3.0,56,0.00,,,0.00,Wunderground v.1.15,2013-04-08 19:00:00,
2013-04-08 15:02:00,79.0,63.4,30.03,NNE,26,0.0,3.0,59,0.00,,,0.00,Wunderground v.1.15,2013-04-08 19:02:00,
2013-04-08 15:03:00,79.1,63.1,30.03,East,80,1.0,3.0,58,0.00,,,0.00,Wunderground v.1.15,2013-04-08 19:03:00,
2013-04-08 15:05:00,79.4,63.8,30.04,ENE,65,0.0,3.0,59,0.00,,,0.00,Wunderground v.1.15,2013-04-08 19:05:00,
2013-04-08 15:08:00,79.8,63.2,30.03,ESE,104,3.0,8.0,57,0.00,,,0.00,Wunderground v.1.15,2013-04-08 19:08:00,
2013-04-08 15:09:00,79.8,63.2,30.04,East,89,1.0,8.0,57,0.00,,,0.00,Wunderground v.1.15,2013-04-08 19:09:00,
2013-04-08 15:10:00,79.7,63.1,30.04,East,80,0.0,2.0,57,0.00,,,0.00,Wunderground v.1.15,2013-04-08 19:10:00,
2013-04-08 15:13:00,79.8,63.7,30.04,East,83,4.0,7.0,58,0.00,,,0.00,Wunderground v.1.15,2013-04-08 19:13:00,
2013-04-08 15:14:00,79.8,63.2,30.04,East,98,4.0,7.0,57,0.00,,,0.00,Wunderground v.1.15,2013-04-08 19:14:00,
2013-04-08 15:15:00,79.6,63.0,30.03,East,96,3.0,8.0,57,0.00,,,0.00,Wunderground v.1.15,2013-04-08 19:15:00,
2013-04-08 15:18:00,79.2,61.6,30.03,ESE,122,1.0,8.0,55,0.00,,,0.00,Wunderground v.1.15,2013-04-08 19:18:00,
2013-04-08 15:19:00,79.1,62.6,30.03,ESE,122,0.0,8.0,57,0.00,,,0.00,Wunderground v.1.15,2013-04-08 19:19:00,
2013-04-08 15:20:00,78.8,61.8,30.03,SE,130,1.0,2.0,56,0.00,,,0.00,Wunderground v.1.15,2013-04-08 19:20:00,
2013-04-08 15:21:00,78.8,61.8,30.03,SE,130,0.0,2.0,56,0.00,,,0.00,Wunderground v.1.15,2013-04-08 19:21:00,
2013-04-08 15:23:00,78.7,62.7,30.03,ESE,117,2.0,5.0,58,0.00,,,0.00,Wunderground v.1.15,2013-04-08 19:23:00,
2013-04-08 15:24:00,78.7,61.7,30.03,ESE,105,4.0,9.0,56,0.00,,,0.00,Wunderground v.1.15,2013-04-08 19:24:00,
2013-04-08 15:25:00,78.7,61.2,30.03,ESE,117,2.0,9.0,55,0.00,,,0.00,Wunderground v.1.15,2013-04-08 19:25:00,
2013-04-08 15:28:00,78.6,61.6,30.03,ESE,114,0.0,9.0,56,0.00,,,0.00,Wunderground v.1.15,2013-04-08 19:28:00,
2013-04-08 15:29:00,78.7,63.2,30.03,East,94,6.0,6.0,59,0.00,,,0.00,Wunderground v.1.15,2013-04-08 19:29:00,
2013-04-08 15:31:00,78.7,61.7,30.03,ESE,113,1.0,6.0,56,0.00,,,0.00,Wunderground v.1.15,2013-04-08 19:31:00,
2013-04-08 15:33:00,78.6,61.6,30.03,East,89,0.0,7.0,56,0.00,,,0.00,Wunderground v.1.15,2013-04-08 19:33:00,
2013-04-08 15:34:00,78.7,63.2,30.03,East,88,0.0,7.0,59,0.00,,,0.00,Wunderground v.1.15,2013-04-08 19:34:00,
2013-04-08 15:36:00,78.9,61.9,30.03,East,93,0.0,7.0,56,0.00,,,0.00,Wunderground v.1.15,2013-04-08 19:36:00,
2013-04-08 15:38:00,78.9,61.4,30.03,SSE,168,0.0,7.0,55,0.00,,,0.00,Wunderground v.1.15,2013-04-08 19:38:00,
2013-04-08 15:39:00,78.9,61.4,30.03,South,171,0.0,7.0,55,0.00,,,0.00,Wunderground v.1.15,2013-04-08 19:39:00,
2013-04-08 15:40:00,79.0,60.9,30.03,South,171,0.0,7.0,54,0.00,,,0.00,Wunderground v.1.15,2013-04-08 19:40:00,
2013-04-08 15:41:00,79.1,61.5,30.03,East,90,0.0,3.0,55,0.00,,,0.00,Wunderground v.1.15,2013-04-08 19:41:00,
2013-04-08 15:43:00,79.2,61.6,30.03,SE,124,1.0,5.0,55,0.00,,,0.00,Wunderground v.1.15,2013-04-08 19:43:00,
2013-04-08 15:44:00,79.2,61.6,30.03,SE,125,1.0,5.0,55,0.00,,,0.00,Wunderground v.1.15,2013-04-08 19:44:00,
2013-04-08 15:45:00,79.2,62.1,30.03,East,101,2.0,9.0,56,0.00,,,0.00,Wunderground v.1.15,2013-04-08 19:45:00,
2013-04-08 15:47:00,79.2,61.6,30.02,ESE,102,8.0,9.0,55,0.00,,,0.00,Wunderground v.1.15,2013-04-08 19:47:00,
2013-04-08 15:49:00,79.0,62.0,30.03,ESE,107,4.0,9.0,56,0.00,,,0.00,Wunderground v.1.15,2013-04-08 19:49:00,
2013-04-08 15:50:00,78.9,61.9,30.03,SE,127,0.0,4.0,56,0.00,,,0.00,Wunderground v.1.15,2013-04-08 19:50:00,
2013-04-08 15:52:00,78.7,60.7,30.03,ESE,104,6.0,8.0,54,0.00,,,0.00,Wunderground v.1.15,2013-04-08 19:52:00,
2013-04-08 15:54:00,78.6,60.0,30.02,ESE,102,1.0,8.0,53,0.00,,,0.00,Wunderground v.1.15,2013-04-08 19:54:00,
2013-04-08 15:55:00,78.6,62.1,30.02,East,90,0.0,8.0,57,0.00,,,0.00,Wunderground v.1.15,2013-04-08 19:55:00,
2013-04-08 15:56:00,78.6,61.6,30.02,SE,140,4.0,8.0,56,0.00,,,0.00,Wunderground v.1.15,2013-04-08 19:56:00,
2013-04-08 15:57:00,78.8,62.3,30.02,ESE,106,8.0,8.0,57,0.00,,,0.00,Wunderground v.1.15,2013-04-08 19:57:00,
2013-04-08 15:59:00,78.9,63.4,30.02,ESE,116,8.0,15.0,59,0.00,,,0.00,Wunderground v.1.15,2013-04-08 19:59:00,
2013-04-08 16:01:00,78.8,62.8,30.02,SE,146,4.0,11.0,58,0.00,,,0.00,Wunderground v.1.15,2013-04-08 20:01:00,
2013-04-08 16:02:00,78.7,62.7,30.02,SE,142,1.0,11.0,58,0.00,,,0.00,Wunderground v.1.15,2013-04-08 20:02:00,
2013-04-08 16:05:00,78.8,63.7,30.03,East,81,3.0,11.0,60,0.00,,,0.00,Wunderground v.1.15,2013-04-08 20:05:00,
2013-04-08 16:06:00,78.9,63.4,30.02,East,96,4.0,11.0,59,0.00,,,0.00,Wunderground v.1.15,2013-04-08 20:06:00,
2013-04-08 16:07:00,79.0,62.5,30.02,ENE,73,1.0,11.0,57,0.00,,,0.00,Wunderground v.1.15,2013-04-08 20:07:00,
2013-04-08 16:10:00,78.9,62.9,30.02,ENE,66,5.0,7.0,58,0.00,,,0.00,Wunderground v.1.15,2013-04-08 20:10:00,
2013-04-08 16:11:00,78.8,63.7,30.03,ESE,121,8.0,14.0,60,0.00,,,0.00,Wunderground v.1.15,2013-04-08 20:11:00,
2013-04-08 16:12:00,78.8,63.7,30.03,SE,132,9.0,14.0,60,0.00,,,0.00,Wunderground v.1.15,2013-04-08 20:12:00,
2013-04-08 16:15:00,78.2,62.2,30.02,East,92,5.0,14.0,58,0.00,,,0.00,Wunderground v.1.15,2013-04-08 20:15:00,
2013-04-08 16:17:00,78.0,62.5,30.02,East,101,1.0,14.0,59,0.00,,,0.00,Wunderground v.1.15,2013-04-08 20:17:00,
2013-04-08 16:18:00,77.9,63.4,30.02,East,94,7.0,14.0,61,0.00,,,0.00,Wunderground v.1.15,2013-04-08 20:18:00,
2013-04-08 16:20:00,77.7,61.7,30.02,SE,126,7.0,8.0,58,0.00,,,0.00,Wunderground v.1.15,2013-04-08 20:20:00,
2013-04-08 16:22:00,77.7,62.7,30.02,East,98,0.0,8.0,60,0.00,,,0.00,Wunderground v.1.15,2013-04-08 20:22:00,
2013-04-08 16:23:00,77.8,62.8,30.02,ESE,122,2.0,8.0,60,0.00,,,0.00,Wunderground v.1.15,2013-04-08 20:23:00,
2013-04-08 16:26:00,78.0,62.0,30.02,East,97,0.0,8.0,58,0.00,,,0.00,Wunderground v.1.15,2013-04-08 20:26:00,
2013-04-08 16:27:00,78.1,63.1,30.02,East,92,0.0,11.0,60,0.00,,,0.00,Wunderground v.1.15,2013-04-08 20:27:00,
2013-04-08 16:28:00,78.2,63.2,30.02,East,98,4.0,11.0,60,0.00,,,0.00,Wunderground v.1.15,2013-04-08 20:28:00,
2013-04-08 16:31:00,78.1,62.1,30.02,East,96,1.0,9.0,58,0.00,,,0.00,Wunderground v.1.15,2013-04-08 20:31:00,
2013-04-08 16:33:00,78.2,62.7,30.02,ESE,109,9.0,13.0,59,0.00,,,0.00,Wunderground v.1.15,2013-04-08 20:33:00,
2013-04-08 16:34:00,78.2,62.7,30.02,ESE,110,8.0,13.0,59,0.00,,,0.00,Wunderground v.1.15,2013-04-08 20:34:00,
2013-04-08 16:37:00,78.1,64.0,30.02,ESE,120,7.0,13.0,62,0.00,,,0.00,Wunderground v.1.15,2013-04-08 20:37:00,
2013-04-08 16:38:00,78.0,63.0,30.02,ESE,103,8.0,13.0,60,0.00,,,0.00,Wunderground v.1.15,2013-04-08 20:38:00,
2013-04-08 16:39:00,78.0,62.5,30.02,ESE,115,7.0,13.0,59,0.00,,,0.00,Wunderground v.1.15,2013-04-08 20:39:00,
2013-04-08 16:42:00,78.2,62.2,30.02,East,98,6.0,8.0,58,0.00,,,0.00,Wunderground v.1.15,2013-04-08 20:42:00,
2013-04-08 16:43:00,78.2,61.7,30.02,ESE,105,5.0,11.0,57,0.00,,,0.00,Wunderground v.1.15,2013-04-08 20:43:00,
2013-04-08 16:44:00,78.2,61.7,30.02,East,96,0.0,11.0,57,0.00,,,0.00,Wunderground v.1.15,2013-04-08 20:44:00,
2013-04-08 16:45:00,78.2,61.7,30.02,East,98,2.0,11.0,57,0.00,,,0.00,Wunderground v.1.15,2013-04-08 20:45:00,
2013-04-08 16:47:00,78.1,62.1,30.02,East,96,1.0,11.0,58,0.00,,,0.00,Wunderground v.1.15,2013-04-08 20:47:00,
2013-04-08 16:48:00,78.1,61.6,30.02,ENE,78,0.0,11.0,57,0.00,,,0.00,Wunderground v.1.15,2013-04-08 20:48:00,
2013-04-08 16:49:00,78.2,62.2,30.02,ESE,105,7.0,11.0,58,0.00,,,0.00,Wunderground v.1.15,2013-04-08 20:49:00,
2013-04-08 16:50:00,78.4,63.4,30.02,East,101,10.0,11.0,60,0.00,,,0.00,Wunderground v.1.15,2013-04-08 20:50:00,
2013-04-08 16:52:00,78.2,62.2,30.01,East,96,2.0,11.0,58,0.00,,,0.00,Wunderground v.1.15,2013-04-08 20:52:00,
2013-04-08 16:54:00,78.1,62.6,30.02,East,100,6.0,11.0,59,0.00,,,0.00,Wunderground v.1.15,2013-04-08 20:54:00,
2013-04-08 16:55:00,78.1,62.1,30.02,ESE,109,3.0,11.0,58,0.00,,,0.00,Wunderground v.1.15,2013-04-08 20:55:00,
2013-04-08 16:57:00,78.3,62.8,30.02,East,99,5.0,11.0,59,0.00,,,0.00,Wunderground v.1.15,2013-04-08 20:57:00,
2013-04-08 16:59:00,78.4,62.9,30.02,ESE,108,3.0,11.0,59,0.00,,,0.00,Wunderground v.1.15,2013-04-08 20:59:00,
2013-04-08 17:00:00,78.3,62.8,30.02,East,95,8.0,12.0,59,0.00,,,0.00,Wunderground v.1.15,2013-04-08 21:00:00,
2013-04-08 17:02:00,78.2,62.7,30.01,East,92,7.0,12.0,59,0.00,,,0.00,Wunderground v.1.15,2013-04-08 21:02:00,
2013-04-08 17:05:00,77.8,62.8,30.01,ESE,122,6.0,12.0,60,0.00,,,0.00,Wunderground v.1.15,2013-04-08 21:05:00,
2013-04-08 17:06:00,77.7,63.2,30.01,ESE,106,7.0,12.0,61,0.00,,,0.00,Wunderground v.1.15,2013-04-08 21:06:00,
2013-04-08 17:07:00,77.6,63.1,30.01,ESE,115,6.0,12.0,61,0.00,,,0.00,Wunderground v.1.15,2013-04-08 21:07:00,
2013-04-08 17:11:00,77.7,63.2,30.01,East,90,1.0,6.0,61,0.00,,,0.00,Wunderground v.1.15,2013-04-08 21:11:00,
2013-04-08 17:12:00,77.7,63.2,30.01,East,92,4.0,6.0,61,0.00,,,0.00,Wunderground v.1.15,2013-04-08 21:12:00,
2013-04-08 17:13:00,77.7,62.7,30.01,East,92,4.0,8.0,60,0.00,,,0.00,Wunderground v.1.15,2013-04-08 21:13:00,
2013-04-08 17:16:00,77.8,63.7,30.01,ESE,120,4.0,8.0,62,0.00,,,0.00,Wunderground v.1.15,2013-04-08 21:16:00,
2013-04-08 17:17:00,77.7,63.2,30.01,ESE,117,6.0,8.0,61,0.00,,,0.00,Wunderground v.1.15,2013-04-08 21:17:00,
2013-04-08 17:18:00,77.6,63.1,30.02,East,97,3.0,8.0,61,0.00,,,0.00,Wunderground v.1.15,2013-04-08 21:18:00,
2013-04-08 17:21:00,77.6,63.5,30.02,East,96,5.0,7.0,62,0.00,,,0.00,Wunderground v.1.15,2013-04-08 21:21:00,
2013-04-08 17:22:00,77.7,64.1,30.02,East,94,6.0,8.0,63,0.00,,,0.00,Wunderground v.1.15,2013-04-08 21:22:00,
2013-04-08 17:23:00,77.7,63.2,30.02,East,97,10.0,10.0,61,0.00,,,0.00,Wunderground v.1.15,2013-04-08 21:23:00,
2013-04-08 17:24:00,77.6,63.1,30.02,SE,125,6.0,10.0,61,0.00,,,0.00,Wunderground v.1.15,2013-04-08 21:24:00,
2013-04-08 17:27:00,77.5,63.9,30.02,East,99,6.0,10.0,63,0.00,,,0.00,Wunderground v.1.15,2013-04-08 21:27:00,
2013-04-08 17:28:00,77.4,63.4,30.02,ENE,74,0.0,10.0,62,0.00,,,0.00,Wunderground v.1.15,2013-04-08 21:28:00,
2013-04-08 17:29:00,77.3,64.2,30.02,SE,125,6.0,10.0,64,0.00,,,0.00,Wunderground v.1.15,2013-04-08 21:29:00,
2013-04-08 17:32:00,77.3,64.2,30.02,East,96,3.0,6.0,64,0.00,,,0.00,Wunderground v.1.15,2013-04-08 21:32:00,
2013-04-08 17:33:00,77.3,63.7,30.02,ESE,110,8.0,8.0,63,0.00,,,0.00,Wunderground v.1.15,2013-04-08 21:33:00,
2013-04-08 17:35:00,77.3,64.2,30.02,ESE,102,1.0,8.0,64,0.00,,,0.00,Wunderground v.1.15,2013-04-08 21:35:00,
2013-04-08 17:37:00,77.3,63.3,30.02,East,92,0.0,8.0,62,0.00,,,0.00,Wunderground v.1.15,2013-04-08 21:37:00,
2013-04-08 17:38:00,77.3,63.3,30.02,East,92,0.0,8.0,62,0.00,,,0.00,Wunderground v.1.15,2013-04-08 21:38:00,
2013-04-08 17:40:00,77.4,64.3,30.02,East,93,1.0,3.0,64,0.00,,,0.00,Wunderground v.1.15,2013-04-08 21:40:00,
2013-04-08 17:43:00,77.4,63.8,30.02,ESE,119,4.0,7.0,63,0.00,,,0.00,Wunderground v.1.15,2013-04-08 21:43:00,
2013-04-08 17:44:00,77.3,64.2,30.02,SE,131,5.0,8.0,64,0.00,,,0.00,Wunderground v.1.15,2013-04-08 21:44:00,
2013-04-08 17:45:00,77.2,63.6,30.02,SE,140,5.0,8.0,63,0.00,,,0.00,Wunderground v.1.15,2013-04-08 21:45:00,
2013-04-08 17:48:00,77.1,63.5,30.02,East,96,5.0,8.0,63,0.00,,,0.00,Wunderground v.1.15,2013-04-08 21:48:00,
2013-04-08 17:49:00,77.0,63.9,30.02,ESE,107,6.0,11.0,64,0.00,,,0.00,Wunderground v.1.15,2013-04-08 21:49:00,
2013-04-08 17:51:00,76.9,63.8,30.02,ESE,113,7.0,9.0,64,0.00,,,0.00,Wunderground v.1.15,2013-04-08 21:51:00,
2013-04-08 17:52:00,76.8,62.8,30.02,East,92,8.0,9.0,62,0.00,,,0.00,Wunderground v.1.15,2013-04-08 21:52:00,
2013-04-08 17:53:00,76.7,63.6,30.02,East,96,6.0,10.0,64,0.00,,,0.00,Wunderground v.1.15,2013-04-08 21:53:00,
2013-04-08 17:54:00,76.7,63.2,30.02,ESE,109,5.0,10.0,63,0.00,,,0.00,Wunderground v.1.15,2013-04-08 21:54:00,
2013-04-08 17:56:00,76.6,63.5,30.02,East,98,0.0,10.0,64,0.00,,,0.00,Wunderground v.1.15,2013-04-08 21:56:00,
2013-04-08 17:57:00,76.6,63.1,30.02,East,99,10.0,10.0,63,0.00,,,0.00,Wunderground v.1.15,2013-04-08 21:57:00,
2013-04-08 17:59:00,76.6,64.0,30.02,East,90,1.0,10.0,65,0.00,,,0.00,Wunderground v.1.15,2013-04-08 21:59:00,
2013-04-08 18:00:00,76.6,64.0,30.02,East,90,3.0,6.0,65,0.00,,,0.00,Wunderground v.1.15,2013-04-08 22:00:00,
2013-04-08 18:02:00,76.6,64.0,30.02,ESE,103,6.0,9.0,65,0.00,,,0.00,Wunderground v.1.15,2013-04-08 22:02:00,
2013-04-08 18:05:00,76.5,63.4,30.02,SE,135,2.0,9.0,64,0.00,,,0.00,Wunderground v.1.15,2013-04-08 22:05:00,
2013-04-08 18:07:00,76.5,63.9,30.02,SE,135,7.0,9.0,65,0.00,,,0.00,Wunderground v.1.15,2013-04-08 22:07:00,
2013-04-08 18:10:00,76.5,64.3,30.02,ESE,102,5.0,5.0,66,0.00,,,0.00,Wunderground v.1.15,2013-04-08 22:10:00,
2013-04-08 18:11:00,76.5,63.9,30.02,East,93,5.0,7.0,65,0.00,,,0.00,Wunderground v.1.15,2013-04-08 22:11:00,
2013-04-08 18:14:00,76.5,64.3,30.03,NE,49,1.0,7.0,66,0.00,,,0.00,Wunderground v.1.15,2013-04-08 22:14:00,
2013-04-08 18:15:00,76.5,63.9,30.03,ESE,110,5.0,7.0,65,0.00,,,0.00,Wunderground v.1.15,2013-04-08 22:15:00,
2013-04-08 18:16:00,76.5,64.7,30.03,East,96,1.0,9.0,67,0.00,,,0.00,Wunderground v.1.15,2013-04-08 22:16:00,
2013-04-08 18:19:00,76.4,63.3,30.03,ESE,103,7.0,10.0,64,0.00,,,0.00,Wunderground v.1.15,2013-04-08 22:19:00,
2013-04-08 18:21:00,76.4,63.8,30.03,East,99,2.0,7.0,65,0.00,,,0.00,Wunderground v.1.15,2013-04-08 22:21:00,
2013-04-08 18:22:00,76.3,63.7,30.03,East,100,2.0,7.0,65,0.00,,,0.00,Wunderground v.1.15,2013-04-08 22:22:00,
2013-04-08 18:25:00,76.2,62.7,30.03,East,92,4.0,7.0,63,0.00,,,0.00,Wunderground v.1.15,2013-04-08 22:25:00,
2013-04-08 18:26:00,76.2,63.1,30.02,East,92,0.0,7.0,64,0.00,,,0.00,Wunderground v.1.15,2013-04-08 22:26:00,
2013-04-08 18:27:00,76.2,63.1,30.03,East,93,1.0,7.0,64,0.00,,,0.00,Wunderground v.1.15,2013-04-08 22:27:00,
2013-04-08 18:30:00,76.2,63.1,30.02,ESE,105,0.0,7.0,64,0.00,,,0.00,Wunderground v.1.15,2013-04-08 22:30:00,
2013-04-08 18:32:00,76.2,63.1,30.02,East,92,0.0,7.0,64,0.00,,,0.00,Wunderground v.1.15,2013-04-08 22:32:00,
2013-04-08 18:34:00,76.2,62.7,30.03,ESE,103,5.0,9.0,63,0.00,,,0.00,Wunderground v.1.15,2013-04-08 22:34:00,
2013-04-08 18:35:00,76.2,62.7,30.03,East,96,2.0,9.0,63,0.00,,,0.00,Wunderground v.1.15,2013-04-08 22:35:00,
2013-04-08 18:37:00,76.1,62.6,30.03,East,101,5.0,9.0,63,0.00,,,0.00,Wunderground v.1.15,2013-04-08 22:37:00,
2013-04-08 18:38:00,76.1,62.1,30.03,East,100,4.0,9.0,62,0.00,,,0.00,Wunderground v.1.15,2013-04-08 22:38:00,
2013-04-08 18:39:00,76.1,62.6,30.03,East,101,5.0,9.0,63,0.00,,,0.00,Wunderground v.1.15,2013-04-08 22:39:00,
2013-04-08 18:41:00,76.1,62.1,30.03,East,97,5.0,6.0,62,0.00,,,0.00,Wunderground v.1.15,2013-04-08 22:41:00,
2013-04-08 18:43:00,76.1,62.1,30.03,ESE,106,6.0,9.0,62,0.00,,,0.00,Wunderground v.1.15,2013-04-08 22:43:00,
2013-04-08 18:44:00,76.1,62.1,30.03,ESE,102,4.0,9.0,62,0.00,,,0.00,Wunderground v.1.15,2013-04-08 22:44:00,
2013-04-08 18:47:00,76.0,61.6,30.03,East,98,6.0,9.0,61,0.00,,,0.00,Wunderground v.1.15,2013-04-08 22:47:00,
2013-04-08 18:48:00,76.0,62.5,30.03,East,91,7.0,9.0,63,0.00,,,0.00,Wunderground v.1.15,2013-04-08 22:48:00,
2013-04-08 18:49:00,76.0,62.5,30.03,ESE,111,7.0,9.0,63,0.00,,,0.00,Wunderground v.1.15,2013-04-08 22:49:00,
2013-04-08 18:53:00,75.8,62.8,30.03,East,99,2.0,8.0,64,0.00,,,0.00,Wunderground v.1.15,2013-04-08 22:53:00,
2013-04-08 18:54:00,75.8,62.8,30.03,East,99,0.0,8.0,64,0.00,,,0.00,Wunderground v.1.15,2013-04-08 22:54:00,
2013-04-08 18:59:00,75.6,63.4,30.04,ESE,111,1.0,8.0,66,0.00,,,0.00,Wunderground v.1.15,2013-04-08 22:59:00,
2013-04-08 19:00:00,75.5,62.9,30.04,ESE,103,0.0,2.0,65,0.00,,,0.00,Wunderground v.1.15,2013-04-08 23:00:00,
2013-04-08 19:04:00,75.2,63.5,30.04,East,88,0.0,7.0,67,0.00,,,0.00,Wunderground v.1.15,2013-04-08 23:04:00,
2013-04-08 19:05:00,75.2,63.1,30.04,East,101,2.0,7.0,66,0.00,,,0.00,Wunderground v.1.15,2013-04-08 23:05:00,
2013-04-08 19:08:00,75.0,63.3,30.04,ESE,103,7.0,7.0,67,0.00,,,0.00,Wunderground v.1.15,2013-04-08 23:08:00,
2013-04-08 19:09:00,74.9,63.2,30.04,East,97,0.0,8.0,67,0.00,,,0.00,Wunderground v.1.15,2013-04-08 23:09:00,
2013-04-08 19:10:00,74.9,63.6,30.04,East,88,1.0,5.0,68,0.00,,,0.00,Wunderground v.1.15,2013-04-08 23:10:00,
2013-04-08 19:11:00,74.9,63.2,30.04,East,91,0.0,5.0,67,0.00,,,0.00,Wunderground v.1.15,2013-04-08 23:11:00,
2013-04-08 19:14:00,74.7,63.4,30.04,ESE,103,0.0,6.0,68,0.00,,,0.00,Wunderground v.1.15,2013-04-08 23:14:00,
2013-04-08 19:15:00,74.6,63.3,30.04,East,100,1.0,6.0,68,0.00,,,0.00,Wunderground v.1.15,2013-04-08 23:15:00,
2013-04-08 19:16:00,74.6,63.3,30.04,East,92,6.0,6.0,68,0.00,,,0.00,Wunderground v.1.15,2013-04-08 23:16:00,
2013-04-08 19:19:00,74.5,64.1,30.05,East,96,8.0,8.0,70,0.00,,,0.00,Wunderground v.1.15,2013-04-08 23:19:00,
2013-04-08 19:20:00,74.5,64.1,30.05,East,96,7.0,7.0,70,0.00,,,0.00,Wunderground v.1.15,2013-04-08 23:20:00,
2013-04-08 19:22:00,74.4,64.4,30.05,East,83,0.0,7.0,71,0.00,,,0.00,Wunderground v.1.15,2013-04-08 23:22:00,
2013-04-08 19:24:00,74.3,63.9,30.05,East,90,4.0,7.0,70,0.00,,,0.00,Wunderground v.1.15,2013-04-08 23:24:00,
2013-04-08 19:25:00,74.3,63.9,30.05,East,92,0.0,7.0,70,0.00,,,0.00,Wunderground v.1.15,2013-04-08 23:25:00,
2013-04-08 19:26:00,74.2,63.8,30.05,East,90,1.0,7.0,70,0.00,,,0.00,Wunderground v.1.15,2013-04-08 23:26:00,
2013-04-08 19:27:00,74.1,63.7,30.05,East,96,4.0,7.0,70,0.00,,,0.00,Wunderground v.1.15,2013-04-08 23:27:00,
2013-04-08 19:29:00,74.1,64.1,30.05,ESE,105,0.0,7.0,71,0.00,,,0.00,Wunderground v.1.15,2013-04-08 23:29:00,
2013-04-08 19:30:00,74.1,64.1,30.05,ESE,105,0.0,3.0,71,0.00,,,0.00,Wunderground v.1.15,2013-04-08 23:30:00,
2013-04-08 19:31:00,74.1,64.1,30.05,ESE,105,6.0,7.0,71,0.00,,,0.00,Wunderground v.1.15,2013-04-08 23:31:00,
2013-04-08 19:32:00,74.0,64.0,30.05,ESE,107,3.0,7.0,71,0.00,,,0.00,Wunderground v.1.15,2013-04-08 23:32:00,
2013-04-08 19:35:00,73.9,63.5,30.05,East,99,5.0,7.0,70,0.00,,,0.00,Wunderground v.1.15,2013-04-08 23:35:00,
2013-04-08 19:36:00,73.9,63.5,30.05,East,96,0.0,8.0,70,0.00,,,0.00,Wunderground v.1.15,2013-04-08 23:36:00,
2013-04-08 19:37:00,73.8,63.0,30.05,East,96,0.0,8.0,69,0.00,,,0.00,Wunderground v.1.15,2013-04-08 23:37:00,
2013-04-08 19:40:00,73.7,62.9,30.05,East,88,5.0,7.0,69,0.00,,,0.00,Wunderground v.1.15,2013-04-08 23:40:00,
2013-04-08 19:41:00,73.7,62.9,30.05,East,86,6.0,7.0,69,0.00,,,0.00,Wunderground v.1.15,2013-04-08 23:41:00,
2013-04-08 19:42:00,73.7,62.9,30.05,East,92,5.0,7.0,69,0.00,,,0.00,Wunderground v.1.15,2013-04-08 23:42:00,
2013-04-08 19:43:00,73.6,62.8,30.05,ESE,102,6.0,8.0,69,0.00,,,0.00,Wunderground v.1.15,2013-04-08 23:43:00,
2013-04-08 19:46:00,73.6,62.8,30.05,East,98,0.0,8.0,69,0.00,,,0.00,Wunderground v.1.15,2013-04-08 23:46:00,
2013-04-08 19:48:00,73.6,63.2,30.04,East,93,0.0,8.0,70,0.00,,,0.00,Wunderground v.1.15,2013-04-08 23:48:00,
2013-04-08 19:49:00,73.6,63.2,30.04,East,99,4.0,8.0,70,0.00,,,0.00,Wunderground v.1.15,2013-04-08 23:49:00,
2013-04-08 19:51:00,73.5,62.7,30.05,East,82,1.0,5.0,69,0.00,,,0.00,Wunderground v.1.15,2013-04-08 23:51:00,
2013-04-08 19:53:00,73.5,63.5,30.04,East,94,5.0,5.0,71,0.00,,,0.00,Wunderground v.1.15,2013-04-08 23:53:00,
2013-04-08 19:55:00,73.5,63.5,30.04,ESE,115,0.0,5.0,71,0.00,,,0.00,Wunderground v.1.15,2013-04-08 23:55:00,
2013-04-08 19:56:00,73.4,63.4,30.04,ESE,111,4.0,5.0,71,0.00,,,0.00,Wunderground v.1.15,2013-04-08 23:56:00,
2013-04-08 19:57:00,73.4,63.8,30.04,East,101,5.0,5.0,72,0.00,,,0.00,Wunderground v.1.15,2013-04-08 23:57:00,
2013-04-08 19:58:00,73.3,63.3,30.04,East,92,1.0,7.0,71,0.00,,,0.00,Wunderground v.1.15,2013-04-08 23:58:00,
2013-04-08 20:00:00,73.3,63.3,30.04,East,92,0.0,2.0,71,0.00,,,0.00,Wunderground v.1.15,2013-04-09 00:00:00,
2013-04-08 20:02:00,73.2,63.6,30.04,East,97,1.0,6.0,72,0.00,,,0.00,Wunderground v.1.15,2013-04-09 00:02:00,
2013-04-08 20:03:00,73.2,63.6,30.04,ESE,103,1.0,6.0,72,0.00,,,0.00,Wunderground v.1.15,2013-04-09 00:03:00,
2013-04-08 20:05:00,73.1,63.1,30.04,East,96,0.0,6.0,71,0.00,,,0.00,Wunderground v.1.15,2013-04-09 00:05:00,
2013-04-08 20:07:00,73.1,63.1,30.04,ESE,103,2.0,7.0,71,0.00,,,0.00,Wunderground v.1.15,2013-04-09 00:07:00,
2013-04-08 20:08:00,73.0,63.0,30.04,ESE,104,1.0,7.0,71,0.00,,,0.00,Wunderground v.1.15,2013-04-09 00:08:00,
2013-04-08 20:11:00,73.0,63.4,30.05,East,101,0.0,5.0,72,0.00,,,0.00,Wunderground v.1.15,2013-04-09 00:11:00,
2013-04-08 20:12:00,73.0,63.4,30.05,East,96,3.0,5.0,72,0.00,,,0.00,Wunderground v.1.15,2013-04-09 00:12:00,
2013-04-08 20:14:00,73.0,63.4,30.05,East,92,0.0,5.0,72,0.00,,,0.00,Wunderground v.1.15,2013-04-09 00:14:00,
2013-04-08 20:16:00,72.9,63.3,30.05,ESE,111,4.0,5.0,72,0.00,,,0.00,Wunderground v.1.15,2013-04-09 00:16:00,
2013-04-08 20:17:00,72.8,63.2,30.05,ESE,102,0.0,6.0,72,0.00,,,0.00,Wunderground v.1.15,2013-04-09 00:17:00,
2013-04-08 20:19:00,72.8,63.2,30.05,East,98,0.0,6.0,72,0.00,,,0.00,Wunderground v.1.15,2013-04-09 00:19:00,
2013-04-08 20:22:00,72.8,63.2,30.05,East,98,0.0,6.0,72,0.00,,,0.00,Wunderground v.1.15,2013-04-09 00:22:00,
2013-04-08 20:23:00,72.8,63.2,30.05,East,96,0.0,6.0,72,0.00,,,0.00,Wunderground v.1.15,2013-04-09 00:23:00,
2013-04-08 20:24:00,72.8,63.6,30.05,East,96,0.0,6.0,73,0.00,,,0.00,Wunderground v.1.15,2013-04-09 00:24:00,
2013-04-08 20:25:00,72.8,63.6,30.05,East,96,1.0,6.0,73,0.00,,,0.00,Wunderground v.1.15,2013-04-09 00:25:00,
2013-04-08 20:27:00,72.7,63.5,30.05,East,94,0.0,6.0,73,0.00,,,0.00,Wunderground v.1.15,2013-04-09 00:27:00,
2013-04-08 20:28:00,72.7,63.5,30.05,East,94,0.0,6.0,73,0.00,,,0.00,Wunderground v.1.15,2013-04-09 00:28:00,
2013-04-08 20:29:00,72.7,63.5,30.05,East,94,0.0,6.0,73,0.00,,,0.00,Wunderground v.1.15,2013-04-09 00:29:00,
2013-04-08 20:30:00,72.6,63.4,30.05,East,94,0.0,1.0,73,0.00,,,0.00,Wunderground v.1.15,2013-04-09 00:30:00,
2013-04-08 20:32:00,72.5,63.4,30.05,East,94,0.0,1.0,73,0.00,,,0.00,Wunderground v.1.15,2013-04-09 00:32:00,
2013-04-08 20:33:00,72.5,63.7,30.05,East,94,0.0,1.0,74,0.00,,,0.00,Wunderground v.1.15,2013-04-09 00:33:00,
2013-04-08 20:35:00,72.5,63.7,30.05,East,94,0.0,1.0,74,0.00,,,0.00,Wunderground v.1.15,2013-04-09 00:35:00,
2013-04-08 20:37:00,72.4,63.6,30.05,East,94,0.0,1.0,74,0.00,,,0.00,Wunderground v.1.15,2013-04-09 00:37:00,
2013-04-08 20:38:00,72.4,63.6,30.05,East,94,5.0,5.0,74,0.00,,,0.00,Wunderground v.1.15,2013-04-09 00:38:00,
2013-04-08 20:40:00,72.4,63.6,30.05,East,94,0.0,0.0,74,0.00,,,0.00,Wunderground v.1.15,2013-04-09 00:40:00,
2013-04-08 20:42:00,72.4,64.0,30.05,East,94,4.0,4.0,75,0.00,,,0.00,Wunderground v.1.15,2013-04-09 00:42:00,
2013-04-08 20:43:00,72.4,63.6,30.05,East,94,0.0,4.0,74,0.00,,,0.00,Wunderground v.1.15,2013-04-09 00:43:00,
2013-04-08 20:45:00,72.3,63.9,30.05,East,94,0.0,4.0,75,0.00,,,0.00,Wunderground v.1.15,2013-04-09 00:45:00,
2013-04-08 20:47:00,72.3,63.9,30.05,East,94,0.0,4.0,75,0.00,,,0.00,Wunderground v.1.15,2013-04-09 00:47:00,
2013-04-08 20:48:00,72.3,63.9,30.05,East,94,0.0,4.0,75,0.00,,,0.00,Wunderground v.1.15,2013-04-09 00:48:00,
2013-04-08 20:51:00,72.2,63.8,30.05,East,94,0.0,4.0,75,0.00,,,0.00,Wunderground v.1.15,2013-04-09 00:51:00,
2013-04-08 20:52:00,72.2,63.8,30.05,East,94,0.0,4.0,75,0.00,,,0.00,Wunderground v.1.15,2013-04-09 00:52:00,
2013-04-08 20:53:00,72.2,63.8,30.05,East,94,1.0,4.0,75,0.00,,,0.00,Wunderground v.1.15,2013-04-09 00:53:00,
2013-04-08 20:54:00,72.2,63.8,30.05,East,94,1.0,4.0,75,0.00,,,0.00,Wunderground v.1.15,2013-04-09 00:54:00,
2013-04-08 20:56:00,72.2,64.2,30.05,East,92,0.0,4.0,76,0.00,,,0.00,Wunderground v.1.15,2013-04-09 00:56:00,
2013-04-08 20:57:00,72.2,64.2,30.05,East,92,0.0,4.0,76,0.00,,,0.00,Wunderground v.1.15,2013-04-09 00:57:00,
2013-04-08 20:58:00,72.1,64.1,30.05,East,95,3.0,4.0,76,0.00,,,0.00,Wunderground v.1.15,2013-04-09 00:58:00,
2013-04-08 21:00:00,72.2,64.2,30.05,East,96,0.0,1.0,76,0.00,,,0.00,Wunderground v.1.15,2013-04-09 01:00:00,
2013-04-08 21:02:00,72.1,64.1,30.05,East,95,0.0,1.0,76,0.00,,,0.00,Wunderground v.1.15,2013-04-09 01:02:00,
2013-04-08 21:04:00,72.0,64.0,30.06,East,95,0.0,1.0,76,0.00,,,0.00,Wunderground v.1.15,2013-04-09 01:04:00,
2013-04-08 21:06:00,72.0,64.0,30.06,East,95,0.0,1.0,76,0.00,,,0.00,Wunderground v.1.15,2013-04-09 01:06:00,
2013-04-08 21:08:00,72.0,64.4,30.06,East,95,0.0,1.0,77,0.00,,,0.00,Wunderground v.1.15,2013-04-09 01:08:00,
2013-04-08 21:10:00,71.9,63.9,30.06,East,95,0.0,0.0,76,0.00,,,0.00,Wunderground v.1.15,2013-04-09 01:10:00,
2013-04-08 21:12:00,71.9,64.3,30.06,East,95,0.0,0.0,77,0.00,,,0.00,Wunderground v.1.15,2013-04-09 01:12:00,
2013-04-08 21:13:00,71.9,64.3,30.06,East,95,0.0,0.0,77,0.00,,,0.00,Wunderground v.1.15,2013-04-09 01:13:00,
2013-04-08 21:15:00,71.8,64.2,30.06,East,95,0.0,0.0,77,0.00,,,0.00,Wunderground v.1.15,2013-04-09 01:15:00,
2013-04-08 21:17:00,71.7,64.1,30.06,East,95,0.0,1.0,77,0.00,,,0.00,Wunderground v.1.15,2013-04-09 01:17:00,
2013-04-08 21:18:00,71.7,64.1,30.06,East,95,0.0,1.0,77,0.00,,,0.00,Wunderground v.1.15,2013-04-09 01:18:00,
2013-04-08 21:20:00,71.7,64.5,30.06,East,95,0.0,0.0,78,0.00,,,0.00,Wunderground v.1.15,2013-04-09 01:20:00,
2013-04-08 21:23:00,71.7,64.8,30.06,East,95,0.0,1.0,79,0.00,,,0.00,Wunderground v.1.15,2013-04-09 01:23:00,
2013-04-08 21:24:00,71.7,64.8,30.06,East,95,0.0,1.0,79,0.00,,,0.00,Wunderground v.1.15,2013-04-09 01:24:00,
2013-04-08 21:25:00,71.6,64.4,30.06,East,95,0.0,1.0,78,0.00,,,0.00,Wunderground v.1.15,2013-04-09 01:25:00,
2013-04-08 21:28:00,71.4,64.2,30.06,East,95,0.0,1.0,78,0.00,,,0.00,Wunderground v.1.15,2013-04-09 01:28:00,
2013-04-08 21:29:00,71.4,64.5,30.06,East,95,0.0,1.0,79,0.00,,,0.00,Wunderground v.1.15,2013-04-09 01:29:00,
2013-04-08 21:30:00,71.4,64.5,30.06,East,95,0.0,0.0,79,0.00,,,0.00,Wunderground v.1.15,2013-04-09 01:30:00,
2013-04-08 21:34:00,71.3,64.4,30.07,East,95,0.0,0.0,79,0.00,,,0.00,Wunderground v.1.15,2013-04-09 01:34:00,
2013-04-08 21:35:00,71.3,64.8,30.07,East,95,0.0,0.0,80,0.00,,,0.00,Wunderground v.1.15,2013-04-09 01:35:00,
2013-04-08 21:36:00,71.2,64.4,30.07,East,95,0.0,0.0,79,0.00,,,0.00,Wunderground v.1.15,2013-04-09 01:36:00,
2013-04-08 21:40:00,71.0,64.5,30.07,East,95,0.0,0.0,80,0.00,,,0.00,Wunderground v.1.15,2013-04-09 01:40:00,
2013-04-08 21:41:00,71.0,64.5,30.07,East,95,0.0,0.0,80,0.00,,,0.00,Wunderground v.1.15,2013-04-09 01:41:00,
2013-04-08 21:45:00,70.9,64.4,30.07,East,95,0.0,0.0,80,0.00,,,0.00,Wunderground v.1.15,2013-04-09 01:45:00,
2013-04-08 21:47:00,70.8,64.7,30.07,East,95,0.0,0.0,81,0.00,,,0.00,Wunderground v.1.15,2013-04-09 01:47:00,
2013-04-08 21:50:00,70.6,64.5,30.08,East,95,0.0,0.0,81,0.00,,,0.00,Wunderground v.1.15,2013-04-09 01:50:00,
2013-04-08 21:52:00,70.6,64.8,30.08,East,95,0.0,0.0,82,0.00,,,0.00,Wunderground v.1.15,2013-04-09 01:52:00,
2013-04-08 21:53:00,70.6,64.8,30.08,East,95,0.0,0.0,82,0.00,,,0.00,Wunderground v.1.15,2013-04-09 01:53:00,
2013-04-08 21:55:00,70.4,64.6,30.08,East,95,0.0,0.0,82,0.00,,,0.00,Wunderground v.1.15,2013-04-09 01:55:00,
2013-04-08 21:58:00,70.3,64.5,30.08,East,95,0.0,0.0,82,0.00,,,0.00,Wunderground v.1.15,2013-04-09 01:58:00,
2013-04-08 21:59:00,70.2,64.4,30.08,East,95,0.0,0.0,82,0.00,,,0.00,Wunderground v.1.15,2013-04-09 01:59:00,
2013-04-08 22:01:00,70.1,64.3,30.08,East,95,0.0,0.0,82,0.00,,,0.00,Wunderground v.1.15,2013-04-09 02:01:00,
2013-04-08 22:03:00,70.1,64.3,30.08,East,95,0.0,0.0,82,0.00,,,0.00,Wunderground v.1.15,2013-04-09 02:03:00,
2013-04-08 22:04:00,70.1,64.3,30.08,East,95,0.0,0.0,82,0.00,,,0.00,Wunderground v.1.15,2013-04-09 02:04:00,
2013-04-08 22:06:00,70.1,64.0,30.08,East,95,0.0,0.0,81,0.00,,,0.00,Wunderground v.1.15,2013-04-09 02:06:00,
2013-04-08 22:08:00,70.2,64.1,30.08,East,95,0.0,0.0,81,0.00,,,0.00,Wunderground v.1.15,2013-04-09 02:08:00,
2013-04-08 22:11:00,70.2,64.1,30.08,East,95,0.0,0.0,81,0.00,,,0.00,Wunderground v.1.15,2013-04-09 02:11:00,
2013-04-08 22:12:00,70.2,64.1,30.08,East,95,0.0,0.0,81,0.00,,,0.00,Wunderground v.1.15,2013-04-09 02:12:00,
2013-04-08 22:13:00,70.2,64.1,30.08,East,95,0.0,0.0,81,0.00,,,0.00,Wunderground v.1.15,2013-04-09 02:13:00,
2013-04-08 22:17:00,70.3,64.2,30.08,East,95,0.0,0.0,81,0.00,,,0.00,Wunderground v.1.15,2013-04-09 02:17:00,
2013-04-08 22:18:00,70.3,64.2,30.08,East,95,0.0,0.0,81,0.00,,,0.00,Wunderground v.1.15,2013-04-09 02:18:00,
2013-04-08 22:22:00,70.1,63.6,30.08,East,95,0.0,0.0,80,0.00,,,0.00,Wunderground v.1.15,2013-04-09 02:22:00,
2013-04-08 22:23:00,70.1,63.6,30.08,East,95,0.0,0.0,80,0.00,,,0.00,Wunderground v.1.15,2013-04-09 02:23:00,
2013-04-08 22:24:00,70.1,63.6,30.08,East,95,0.0,0.0,80,0.00,,,0.00,Wunderground v.1.15,2013-04-09 02:24:00,
2013-04-08 22:27:00,70.1,63.6,30.08,East,95,0.0,0.0,80,0.00,,,0.00,Wunderground v.1.15,2013-04-09 02:27:00,
2013-04-08 22:29:00,70.1,63.6,30.08,East,95,0.0,0.0,80,0.00,,,0.00,Wunderground v.1.15,2013-04-09 02:29:00,
2013-04-08 22:30:00,70.0,63.5,30.08,East,95,0.0,0.0,80,0.00,,,0.00,Wunderground v.1.15,2013-04-09 02:30:00,
2013-04-08 22:33:00,70.1,64.0,30.08,East,95,0.0,0.0,81,0.00,,,0.00,Wunderground v.1.15,2013-04-09 02:33:00,
2013-04-08 22:34:00,70.1,63.6,30.08,East,95,0.0,0.0,80,0.00,,,0.00,Wunderground v.1.15,2013-04-09 02:34:00,
2013-04-08 22:35:00,70.1,63.6,30.08,East,95,0.0,0.0,80,0.00,,,0.00,Wunderground v.1.15,2013-04-09 02:35:00,
2013-04-08 22:36:00,70.1,63.6,30.08,East,95,0.0,0.0,80,0.00,,,0.00,Wunderground v.1.15,2013-04-09 02:36:00,
2013-04-08 22:39:00,70.3,63.8,30.08,East,95,0.0,0.0,80,0.00,,,0.00,Wunderground v.1.15,2013-04-09 02:39:00,
2013-04-08 22:40:00,70.3,63.8,30.08,East,95,0.0,0.0,80,0.00,,,0.00,Wunderground v.1.15,2013-04-09 02:40:00,
2013-04-08 22:44:00,70.2,63.4,30.08,East,95,0.0,0.0,79,0.00,,,0.00,Wunderground v.1.15,2013-04-09 02:44:00,
2013-04-08 22:45:00,70.1,63.3,30.08,East,95,0.0,0.0,79,0.00,,,0.00,Wunderground v.1.15,2013-04-09 02:45:00,
2013-04-08 22:46:00,70.1,63.3,30.08,East,95,0.0,0.0,79,0.00,,,0.00,Wunderground v.1.15,2013-04-09 02:46:00,
2013-04-08 22:49:00,70.1,63.3,30.08,East,95,0.0,0.0,79,0.00,,,0.00,Wunderground v.1.15,2013-04-09 02:49:00,
2013-04-08 22:50:00,70.1,63.3,30.08,East,95,0.0,0.0,79,0.00,,,0.00,Wunderground v.1.15,2013-04-09 02:50:00,
2013-04-08 22:51:00,70.1,63.3,30.08,East,95,0.0,0.0,79,0.00,,,0.00,Wunderground v.1.15,2013-04-09 02:51:00,
2013-04-08 22:54:00,69.9,62.7,30.08,East,95,0.0,0.0,78,0.00,,,0.00,Wunderground v.1.15,2013-04-09 02:54:00,
2013-04-08 22:55:00,69.9,62.7,30.08,East,95,0.0,0.0,78,0.00,,,0.00,Wunderground v.1.15,2013-04-09 02:55:00,
2013-04-08 22:56:00,69.9,63.1,30.08,East,95,0.0,0.0,79,0.00,,,0.00,Wunderground v.1.15,2013-04-09 02:56:00,
2013-04-08 22:59:00,69.6,62.8,30.09,East,95,0.0,0.0,79,0.00,,,0.00,Wunderground v.1.15,2013-04-09 02:59:00,
2013-04-08 23:00:00,69.6,62.8,30.09,East,95,0.0,0.0,79,0.00,,,0.00,Wunderground v.1.15,2013-04-09 03:00:00,
2013-04-08 23:01:00,69.5,62.7,30.08,East,95,0.0,0.0,79,0.00,,,0.00,Wunderground v.1.15,2013-04-09 03:01:00,
2013-04-08 23:03:00,69.3,62.5,30.08,East,95,0.0,0.0,79,0.00,,,0.00,Wunderground v.1.15,2013-04-09 03:03:00,
2013-04-08 23:04:00,69.2,62.4,30.08,East,95,0.0,0.0,79,0.00,,,0.00,Wunderground v.1.15,2013-04-09 03:04:00,
2013-04-08 23:05:00,69.2,62.4,30.08,East,95,0.0,0.0,79,0.00,,,0.00,Wunderground v.1.15,2013-04-09 03:05:00,
2013-04-08 23:06:00,69.0,62.6,30.08,East,95,0.0,0.0,80,0.00,,,0.00,Wunderground v.1.15,2013-04-09 03:06:00,
2013-04-08 23:09:00,68.9,62.5,30.09,East,95,0.0,0.0,80,0.00,,,0.00,Wunderground v.1.15,2013-04-09 03:09:00,
2013-04-08 23:10:00,68.8,62.4,30.09,East,95,0.0,0.0,80,0.00,,,0.00,Wunderground v.1.15,2013-04-09 03:10:00,
2013-04-08 23:12:00,68.6,62.5,30.09,East,95,0.0,0.0,81,0.00,,,0.00,Wunderground v.1.15,2013-04-09 03:12:00,
2013-04-08 23:15:00,68.3,62.6,30.09,East,95,0.0,0.0,82,0.00,,,0.00,Wunderground v.1.15,2013-04-09 03:15:00,
2013-04-08 23:17:00,68.1,62.4,30.09,East,95,0.0,0.0,82,0.00,,,0.00,Wunderground v.1.15,2013-04-09 03:17:00,
2013-04-08 23:20:00,67.7,62.3,30.09,East,95,0.0,0.0,83,0.00,,,0.00,Wunderground v.1.15,2013-04-09 03:20:00,
2013-04-08 23:22:00,67.7,62.3,30.09,East,95,0.0,0.0,83,0.00,,,0.00,Wunderground v.1.15,2013-04-09 03:22:00,
2013-04-08 23:23:00,67.7,62.7,30.09,East,95,0.0,0.0,84,0.00,,,0.00,Wunderground v.1.15,2013-04-09 03:23:00,
2013-04-08 23:25:00,67.7,62.7,30.09,East,95,0.0,0.0,84,0.00,,,0.00,Wunderground v.1.15,2013-04-09 03:25:00,
2013-04-08 23:27:00,67.6,62.6,30.09,East,95,0.0,0.0,84,0.00,,,0.00,Wunderground v.1.15,2013-04-09 03:27:00,
2013-04-08 23:29:00,67.3,62.3,30.09,East,95,0.0,0.0,84,0.00,,,0.00,Wunderground v.1.15,2013-04-09 03:29:00,
2013-04-08 23:30:00,67.2,62.2,30.09,East,95,0.0,0.0,84,0.00,,,0.00,Wunderground v.1.15,2013-04-09 03:30:00,
2013-04-08 23:31:00,67.1,62.1,30.09,East,95,0.0,0.0,84,0.00,,,0.00,Wunderground v.1.15,2013-04-09 03:31:00,
2013-04-08 23:32:00,66.9,62.2,30.09,East,95,0.0,0.0,85,0.00,,,0.00,Wunderground v.1.15,2013-04-09 03:32:00,
2013-04-08 23:34:00,66.7,62.0,30.09,East,95,0.0,0.0,85,0.00,,,0.00,Wunderground v.1.15,2013-04-09 03:34:00,
2013-04-08 23:36:00,66.7,62.4,30.09,East,95,0.0,0.0,86,0.00,,,0.00,Wunderground v.1.15,2013-04-09 03:36:00,
2013-04-08 23:37:00,66.6,62.6,30.09,East,95,0.0,0.0,87,0.00,,,0.00,Wunderground v.1.15,2013-04-09 03:37:00,
2013-04-08 23:41:00,66.6,62.6,30.09,East,95,0.0,0.0,87,0.00,,,0.00,Wunderground v.1.15,2013-04-09 03:41:00,
2013-04-08 23:42:00,66.5,62.5,30.09,East,95,0.0,0.0,87,0.00,,,0.00,Wunderground v.1.15,2013-04-09 03:42:00,
2013-04-08 23:47:00,66.3,62.3,30.08,East,95,0.0,0.0,87,0.00,,,0.00,Wunderground v.1.15,2013-04-09 03:47:00,
2013-04-08 23:48:00,66.3,62.3,30.09,East,95,0.0,0.0,87,0.00,,,0.00,Wunderground v.1.15,2013-04-09 03:48:00,
2013-04-08 23:52:00,66.1,62.4,30.09,East,95,0.0,0.0,88,0.00,,,0.00,Wunderground v.1.15,2013-04-09 03:52:00,
2013-04-08 23:53:00,66.1,62.4,30.09,East,95,0.0,0.0,88,0.00,,,0.00,Wunderground v.1.15,2013-04-09 03:53:00,
2013-04-08 23:54:00,66.0,62.3,30.09,East,95,0.0,0.0,88,0.00,,,0.00,Wunderground v.1.15,2013-04-09 03:54:00,
2013-04-08 23:57:00,65.9,62.2,30.09,East,95,0.0,0.0,88,0.00,,,0.00,Wunderground v.1.15,2013-04-09 03:57:00,
2013-04-08 23:58:00,65.8,62.1,30.09,East,95,0.0,0.0,88,0.00,,,0.00,Wunderground v.1.15,2013-04-09 03:58:00,
2013-04-08 23:59:00,65.8,62.1,30.09,East,95,0.0,0.0,88,0.00,,,0.00,Wunderground v.1.15,2013-04-09 03:59:00,